<?xml version="1.0" encoding="UTF-8" standalone="no" ?>
<gpx xmlns="http://www.topografix.com/GPX/1/1" creator="MapSource 6.11.6" version="1.1" xmlns:xsi="http://www.w3.org/2001/XMLSchema-instance" xsi:schemaLocation="http://www.topografix.com/GPX/1/1 http://www.topografix.com/GPX/1/1/gpx.xsd">

  <metadata>
    <link href="http://www.garmin.com">
      <text>Garmin International</text>
    </link>
    <time>2009-04-13T16:14:30Z</time>
    <bounds maxlat="50.688742" maxlon="6.409434" minlat="50.663323" minlon="6.382276"/>
  </metadata>

  <trk>
    <name>Mestrenger Mühle Trip 1</name>
    <extensions>
      <gpxx:TrackExtension xmlns:gpxx="http://www.garmin.com/xmlschemas/GpxExtensions/v3" xmlns:xsi="http://www.w3.org/2001/XMLSchema-instance" xsi:schemaLocation="http://www.garmin.com/xmlschemas/GpxExtensions/v3 http://www.garmin.com/xmlschemas/GpxExtensions/v3/GpxExtensionsv3.xsd">
        <gpxx:DisplayColor>White</gpxx:DisplayColor>
      </gpxx:TrackExtension>
    </extensions>
    <trkseg>
      <trkpt lat="50.663759" lon="6.408116">
        <ele>409.660000</ele>
        <time>2009-04-13T08:32:07Z</time>
      </trkpt>
      <trkpt lat="50.663759" lon="6.408116">
        <ele>410.620000</ele>
        <time>2009-04-13T08:32:36Z</time>
      </trkpt>
      <trkpt lat="50.663323" lon="6.407318">
        <ele>411.580000</ele>
        <time>2009-04-13T08:32:44Z</time>
      </trkpt>
      <trkpt lat="50.663373" lon="6.407131">
        <ele>411.100000</ele>
        <time>2009-04-13T08:32:52Z</time>
      </trkpt>
      <trkpt lat="50.663421" lon="6.407012">
        <ele>411.580000</ele>
        <time>2009-04-13T08:32:59Z</time>
      </trkpt>
      <trkpt lat="50.663547" lon="6.406753">
        <ele>412.060000</ele>
        <time>2009-04-13T08:33:13Z</time>
      </trkpt>
      <trkpt lat="50.663656" lon="6.406490">
        <ele>412.540000</ele>
        <time>2009-04-13T08:33:27Z</time>
      </trkpt>
      <trkpt lat="50.663748" lon="6.406219">
        <ele>413.020000</ele>
        <time>2009-04-13T08:33:41Z</time>
      </trkpt>
      <trkpt lat="50.663754" lon="6.406197">
        <ele>413.020000</ele>
        <time>2009-04-13T08:33:42Z</time>
      </trkpt>
      <trkpt lat="50.663761" lon="6.406071">
        <ele>413.020000</ele>
        <time>2009-04-13T08:33:48Z</time>
      </trkpt>
      <trkpt lat="50.663761" lon="6.405720">
        <ele>413.500000</ele>
        <time>2009-04-13T08:34:04Z</time>
      </trkpt>
      <trkpt lat="50.663800" lon="6.405391">
        <ele>412.540000</ele>
        <time>2009-04-13T08:34:19Z</time>
      </trkpt>
      <trkpt lat="50.663804" lon="6.405301">
        <ele>412.060000</ele>
        <time>2009-04-13T08:34:23Z</time>
      </trkpt>
      <trkpt lat="50.663815" lon="6.405100">
        <ele>411.580000</ele>
        <time>2009-04-13T08:34:32Z</time>
      </trkpt>
      <trkpt lat="50.663789" lon="6.404858">
        <ele>410.620000</ele>
        <time>2009-04-13T08:34:44Z</time>
      </trkpt>
      <trkpt lat="50.663761" lon="6.404562">
        <ele>408.700000</ele>
        <time>2009-04-13T08:34:59Z</time>
      </trkpt>
      <trkpt lat="50.663694" lon="6.404288">
        <ele>407.260000</ele>
        <time>2009-04-13T08:35:11Z</time>
      </trkpt>
      <trkpt lat="50.663687" lon="6.404264">
        <ele>407.260000</ele>
        <time>2009-04-13T08:35:12Z</time>
      </trkpt>
      <trkpt lat="50.663693" lon="6.404164">
        <ele>406.290000</ele>
        <time>2009-04-13T08:35:17Z</time>
      </trkpt>
      <trkpt lat="50.663719" lon="6.403851">
        <ele>404.850000</ele>
        <time>2009-04-13T08:35:32Z</time>
      </trkpt>
      <trkpt lat="50.663727" lon="6.403753">
        <ele>404.850000</ele>
        <time>2009-04-13T08:35:37Z</time>
      </trkpt>
      <trkpt lat="50.663757" lon="6.403630">
        <ele>405.330000</ele>
        <time>2009-04-13T08:35:43Z</time>
      </trkpt>
      <trkpt lat="50.663971" lon="6.403543">
        <ele>406.290000</ele>
        <time>2009-04-13T08:35:59Z</time>
      </trkpt>
      <trkpt lat="50.664091" lon="6.403625">
        <ele>406.290000</ele>
        <time>2009-04-13T08:36:11Z</time>
      </trkpt>
      <trkpt lat="50.664098" lon="6.403612">
        <ele>406.770000</ele>
        <time>2009-04-13T08:36:26Z</time>
      </trkpt>
      <trkpt lat="50.664121" lon="6.403622">
        <ele>406.770000</ele>
        <time>2009-04-13T08:36:29Z</time>
      </trkpt>
      <trkpt lat="50.664324" lon="6.403738">
        <ele>406.770000</ele>
        <time>2009-04-13T08:36:44Z</time>
      </trkpt>
      <trkpt lat="50.664526" lon="6.403815">
        <ele>407.260000</ele>
        <time>2009-04-13T08:36:59Z</time>
      </trkpt>
      <trkpt lat="50.664746" lon="6.403917">
        <ele>407.260000</ele>
        <time>2009-04-13T08:37:14Z</time>
      </trkpt>
      <trkpt lat="50.664961" lon="6.403992">
        <ele>406.290000</ele>
        <time>2009-04-13T08:37:29Z</time>
      </trkpt>
      <trkpt lat="50.665187" lon="6.403944">
        <ele>406.290000</ele>
        <time>2009-04-13T08:37:43Z</time>
      </trkpt>
      <trkpt lat="50.665416" lon="6.403883">
        <ele>405.810000</ele>
        <time>2009-04-13T08:37:58Z</time>
      </trkpt>
      <trkpt lat="50.665608" lon="6.403839">
        <ele>405.810000</ele>
        <time>2009-04-13T08:38:12Z</time>
      </trkpt>
      <trkpt lat="50.665878" lon="6.403778">
        <ele>406.290000</ele>
        <time>2009-04-13T08:38:29Z</time>
      </trkpt>
      <trkpt lat="50.666010" lon="6.403674">
        <ele>405.810000</ele>
        <time>2009-04-13T08:38:40Z</time>
      </trkpt>
      <trkpt lat="50.666016" lon="6.403343">
        <ele>406.290000</ele>
        <time>2009-04-13T08:38:55Z</time>
      </trkpt>
      <trkpt lat="50.666000" lon="6.402996">
        <ele>406.770000</ele>
        <time>2009-04-13T08:39:11Z</time>
      </trkpt>
      <trkpt lat="50.665987" lon="6.402676">
        <ele>406.770000</ele>
        <time>2009-04-13T08:39:26Z</time>
      </trkpt>
      <trkpt lat="50.665980" lon="6.402356">
        <ele>407.260000</ele>
        <time>2009-04-13T08:39:41Z</time>
      </trkpt>
      <trkpt lat="50.665983" lon="6.402061">
        <ele>406.770000</ele>
        <time>2009-04-13T08:39:55Z</time>
      </trkpt>
      <trkpt lat="50.665950" lon="6.401674">
        <ele>406.290000</ele>
        <time>2009-04-13T08:40:11Z</time>
      </trkpt>
      <trkpt lat="50.665948" lon="6.401656">
        <ele>406.290000</ele>
        <time>2009-04-13T08:40:12Z</time>
      </trkpt>
      <trkpt lat="50.665960" lon="6.401556">
        <ele>405.810000</ele>
        <time>2009-04-13T08:40:17Z</time>
      </trkpt>
      <trkpt lat="50.665984" lon="6.401272">
        <ele>404.850000</ele>
        <time>2009-04-13T08:40:31Z</time>
      </trkpt>
      <trkpt lat="50.666016" lon="6.401163">
        <ele>403.410000</ele>
        <time>2009-04-13T08:40:42Z</time>
      </trkpt>
      <trkpt lat="50.666159" lon="6.401513">
        <ele>401.490000</ele>
        <time>2009-04-13T08:40:59Z</time>
      </trkpt>
      <trkpt lat="50.666193" lon="6.401605">
        <ele>400.530000</ele>
        <time>2009-04-13T08:41:03Z</time>
      </trkpt>
      <trkpt lat="50.666326" lon="6.401856">
        <ele>399.080000</ele>
        <time>2009-04-13T08:41:18Z</time>
      </trkpt>
      <trkpt lat="50.666468" lon="6.402119">
        <ele>398.120000</ele>
        <time>2009-04-13T08:41:32Z</time>
      </trkpt>
      <trkpt lat="50.666590" lon="6.402379">
        <ele>397.160000</ele>
        <time>2009-04-13T08:41:47Z</time>
      </trkpt>
      <trkpt lat="50.666726" lon="6.402714">
        <ele>396.200000</ele>
        <time>2009-04-13T08:42:04Z</time>
      </trkpt>
      <trkpt lat="50.666769" lon="6.402764">
        <ele>395.720000</ele>
        <time>2009-04-13T08:42:20Z</time>
      </trkpt>
      <trkpt lat="50.666792" lon="6.402791">
        <ele>396.200000</ele>
        <time>2009-04-13T08:43:02Z</time>
      </trkpt>
      <trkpt lat="50.666799" lon="6.402750">
        <ele>395.720000</ele>
        <time>2009-04-13T08:43:56Z</time>
      </trkpt>
      <trkpt lat="50.666809" lon="6.402365">
        <ele>393.320000</ele>
        <time>2009-04-13T08:44:12Z</time>
      </trkpt>
      <trkpt lat="50.666795" lon="6.402315">
        <ele>392.360000</ele>
        <time>2009-04-13T08:44:15Z</time>
      </trkpt>
      <trkpt lat="50.666779" lon="6.402265">
        <ele>391.870000</ele>
        <time>2009-04-13T08:44:18Z</time>
      </trkpt>
      <trkpt lat="50.666699" lon="6.402019">
        <ele>390.430000</ele>
        <time>2009-04-13T08:44:32Z</time>
      </trkpt>
      <trkpt lat="50.666683" lon="6.401962">
        <ele>389.950000</ele>
        <time>2009-04-13T08:44:36Z</time>
      </trkpt>
      <trkpt lat="50.666646" lon="6.401741">
        <ele>388.990000</ele>
        <time>2009-04-13T08:44:45Z</time>
      </trkpt>
      <trkpt lat="50.666643" lon="6.401646">
        <ele>388.990000</ele>
        <time>2009-04-13T08:44:48Z</time>
      </trkpt>
      <trkpt lat="50.666802" lon="6.401527">
        <ele>388.990000</ele>
        <time>2009-04-13T08:44:59Z</time>
      </trkpt>
      <trkpt lat="50.666959" lon="6.401641">
        <ele>388.990000</ele>
        <time>2009-04-13T08:45:13Z</time>
      </trkpt>
      <trkpt lat="50.667161" lon="6.401833">
        <ele>388.990000</ele>
        <time>2009-04-13T08:45:31Z</time>
      </trkpt>
      <trkpt lat="50.667444" lon="6.401901">
        <ele>391.390000</ele>
        <time>2009-04-13T08:45:51Z</time>
      </trkpt>
      <trkpt lat="50.667558" lon="6.401823">
        <ele>392.840000</ele>
        <time>2009-04-13T08:46:08Z</time>
      </trkpt>
      <trkpt lat="50.667653" lon="6.401765">
        <ele>394.280000</ele>
        <time>2009-04-13T08:46:16Z</time>
      </trkpt>
      <trkpt lat="50.667757" lon="6.401733">
        <ele>395.240000</ele>
        <time>2009-04-13T08:46:24Z</time>
      </trkpt>
      <trkpt lat="50.667903" lon="6.401684">
        <ele>397.640000</ele>
        <time>2009-04-13T08:46:38Z</time>
      </trkpt>
      <trkpt lat="50.667947" lon="6.401667">
        <ele>398.600000</ele>
        <time>2009-04-13T08:46:43Z</time>
      </trkpt>
      <trkpt lat="50.668181" lon="6.401665">
        <ele>401.970000</ele>
        <time>2009-04-13T08:47:00Z</time>
      </trkpt>
      <trkpt lat="50.668361" lon="6.401552">
        <ele>404.370000</ele>
        <time>2009-04-13T08:47:13Z</time>
      </trkpt>
      <trkpt lat="50.668444" lon="6.401383">
        <ele>405.810000</ele>
        <time>2009-04-13T08:47:24Z</time>
      </trkpt>
      <trkpt lat="50.668533" lon="6.401053">
        <ele>407.740000</ele>
        <time>2009-04-13T08:47:41Z</time>
      </trkpt>
      <trkpt lat="50.668632" lon="6.400725">
        <ele>409.660000</ele>
        <time>2009-04-13T08:47:58Z</time>
      </trkpt>
      <trkpt lat="50.668662" lon="6.400662">
        <ele>410.140000</ele>
        <time>2009-04-13T08:48:02Z</time>
      </trkpt>
      <trkpt lat="50.668696" lon="6.400555">
        <ele>411.100000</ele>
        <time>2009-04-13T08:48:08Z</time>
      </trkpt>
      <trkpt lat="50.668762" lon="6.400218">
        <ele>413.500000</ele>
        <time>2009-04-13T08:48:25Z</time>
      </trkpt>
      <trkpt lat="50.668816" lon="6.399858">
        <ele>413.980000</ele>
        <time>2009-04-13T08:48:42Z</time>
      </trkpt>
      <trkpt lat="50.668841" lon="6.399433">
        <ele>415.910000</ele>
        <time>2009-04-13T08:49:02Z</time>
      </trkpt>
      <trkpt lat="50.668787" lon="6.399066">
        <ele>417.830000</ele>
        <time>2009-04-13T08:49:20Z</time>
      </trkpt>
      <trkpt lat="50.668767" lon="6.398793">
        <ele>418.790000</ele>
        <time>2009-04-13T08:49:33Z</time>
      </trkpt>
      <trkpt lat="50.668705" lon="6.398414">
        <ele>420.230000</ele>
        <time>2009-04-13T08:49:51Z</time>
      </trkpt>
      <trkpt lat="50.668649" lon="6.398168">
        <ele>420.710000</ele>
        <time>2009-04-13T08:50:04Z</time>
      </trkpt>
      <trkpt lat="50.668573" lon="6.397899">
        <ele>420.710000</ele>
        <time>2009-04-13T08:50:18Z</time>
      </trkpt>
      <trkpt lat="50.668573" lon="6.397697">
        <ele>420.710000</ele>
        <time>2009-04-13T08:50:27Z</time>
      </trkpt>
      <trkpt lat="50.668628" lon="6.397418">
        <ele>419.750000</ele>
        <time>2009-04-13T08:50:41Z</time>
      </trkpt>
      <trkpt lat="50.668742" lon="6.397187">
        <ele>418.790000</ele>
        <time>2009-04-13T08:50:53Z</time>
      </trkpt>
      <trkpt lat="50.668899" lon="6.396894">
        <ele>416.390000</ele>
        <time>2009-04-13T08:51:09Z</time>
      </trkpt>
      <trkpt lat="50.669000" lon="6.396688">
        <ele>413.980000</ele>
        <time>2009-04-13T08:51:22Z</time>
      </trkpt>
      <trkpt lat="50.669035" lon="6.396329">
        <ele>411.580000</ele>
        <time>2009-04-13T08:51:38Z</time>
      </trkpt>
      <trkpt lat="50.669059" lon="6.396116">
        <ele>409.660000</ele>
        <time>2009-04-13T08:51:48Z</time>
      </trkpt>
      <trkpt lat="50.669091" lon="6.396005">
        <ele>408.700000</ele>
        <time>2009-04-13T08:51:53Z</time>
      </trkpt>
      <trkpt lat="50.669109" lon="6.395935">
        <ele>408.220000</ele>
        <time>2009-04-13T08:51:56Z</time>
      </trkpt>
      <trkpt lat="50.669261" lon="6.395744">
        <ele>405.330000</ele>
        <time>2009-04-13T08:52:11Z</time>
      </trkpt>
      <trkpt lat="50.669453" lon="6.395601">
        <ele>402.450000</ele>
        <time>2009-04-13T08:52:26Z</time>
      </trkpt>
      <trkpt lat="50.669662" lon="6.395525">
        <ele>401.010000</ele>
        <time>2009-04-13T08:52:41Z</time>
      </trkpt>
      <trkpt lat="50.669690" lon="6.395499">
        <ele>401.010000</ele>
        <time>2009-04-13T08:52:43Z</time>
      </trkpt>
      <trkpt lat="50.669711" lon="6.395411">
        <ele>399.570000</ele>
        <time>2009-04-13T08:52:47Z</time>
      </trkpt>
      <trkpt lat="50.669789" lon="6.395125">
        <ele>396.680000</ele>
        <time>2009-04-13T08:53:02Z</time>
      </trkpt>
      <trkpt lat="50.669848" lon="6.394930">
        <ele>393.320000</ele>
        <time>2009-04-13T08:53:13Z</time>
      </trkpt>
      <trkpt lat="50.669896" lon="6.394757">
        <ele>390.430000</ele>
        <time>2009-04-13T08:53:25Z</time>
      </trkpt>
      <trkpt lat="50.669950" lon="6.394515">
        <ele>387.070000</ele>
        <time>2009-04-13T08:53:37Z</time>
      </trkpt>
      <trkpt lat="50.669943" lon="6.394212">
        <ele>383.700000</ele>
        <time>2009-04-13T08:53:51Z</time>
      </trkpt>
      <trkpt lat="50.669942" lon="6.394032">
        <ele>380.820000</ele>
        <time>2009-04-13T08:54:00Z</time>
      </trkpt>
      <trkpt lat="50.669962" lon="6.393851">
        <ele>378.420000</ele>
        <time>2009-04-13T08:54:09Z</time>
      </trkpt>
      <trkpt lat="50.669947" lon="6.393590">
        <ele>375.530000</ele>
        <time>2009-04-13T08:54:20Z</time>
      </trkpt>
      <trkpt lat="50.669926" lon="6.393281">
        <ele>372.650000</ele>
        <time>2009-04-13T08:54:33Z</time>
      </trkpt>
      <trkpt lat="50.669919" lon="6.393029">
        <ele>369.760000</ele>
        <time>2009-04-13T08:54:46Z</time>
      </trkpt>
      <trkpt lat="50.669865" lon="6.392820">
        <ele>366.880000</ele>
        <time>2009-04-13T08:55:00Z</time>
      </trkpt>
      <trkpt lat="50.669843" lon="6.392584">
        <ele>363.520000</ele>
        <time>2009-04-13T08:55:12Z</time>
      </trkpt>
      <trkpt lat="50.669792" lon="6.392405">
        <ele>360.630000</ele>
        <time>2009-04-13T08:55:23Z</time>
      </trkpt>
      <trkpt lat="50.669778" lon="6.392231">
        <ele>357.270000</ele>
        <time>2009-04-13T08:55:34Z</time>
      </trkpt>
      <trkpt lat="50.669716" lon="6.392037">
        <ele>354.380000</ele>
        <time>2009-04-13T08:55:45Z</time>
      </trkpt>
      <trkpt lat="50.669660" lon="6.391884">
        <ele>350.540000</ele>
        <time>2009-04-13T08:55:56Z</time>
      </trkpt>
      <trkpt lat="50.669583" lon="6.391734">
        <ele>347.650000</ele>
        <time>2009-04-13T08:56:08Z</time>
      </trkpt>
      <trkpt lat="50.669648" lon="6.391479">
        <ele>344.290000</ele>
        <time>2009-04-13T08:56:20Z</time>
      </trkpt>
      <trkpt lat="50.669746" lon="6.391374">
        <ele>341.410000</ele>
        <time>2009-04-13T08:56:36Z</time>
      </trkpt>
      <trkpt lat="50.669824" lon="6.391297">
        <ele>338.040000</ele>
        <time>2009-04-13T08:56:46Z</time>
      </trkpt>
      <trkpt lat="50.669852" lon="6.391242">
        <ele>336.120000</ele>
        <time>2009-04-13T08:56:51Z</time>
      </trkpt>
      <trkpt lat="50.669903" lon="6.391140">
        <ele>334.200000</ele>
        <time>2009-04-13T08:56:58Z</time>
      </trkpt>
      <trkpt lat="50.670020" lon="6.390965">
        <ele>330.350000</ele>
        <time>2009-04-13T08:57:10Z</time>
      </trkpt>
      <trkpt lat="50.670039" lon="6.390884">
        <ele>328.430000</ele>
        <time>2009-04-13T08:57:24Z</time>
      </trkpt>
      <trkpt lat="50.669815" lon="6.391092">
        <ele>328.430000</ele>
        <time>2009-04-13T08:57:45Z</time>
      </trkpt>
      <trkpt lat="50.669712" lon="6.391278">
        <ele>328.910000</ele>
        <time>2009-04-13T08:58:05Z</time>
      </trkpt>
      <trkpt lat="50.669691" lon="6.391403">
        <ele>329.870000</ele>
        <time>2009-04-13T08:58:14Z</time>
      </trkpt>
      <trkpt lat="50.669376" lon="6.391276">
        <ele>329.390000</ele>
        <time>2009-04-13T08:58:33Z</time>
      </trkpt>
      <trkpt lat="50.669290" lon="6.391070">
        <ele>329.390000</ele>
        <time>2009-04-13T08:58:44Z</time>
      </trkpt>
      <trkpt lat="50.669284" lon="6.390878">
        <ele>328.910000</ele>
        <time>2009-04-13T08:58:49Z</time>
      </trkpt>
      <trkpt lat="50.669178" lon="6.390463">
        <ele>327.470000</ele>
        <time>2009-04-13T08:59:00Z</time>
      </trkpt>
      <trkpt lat="50.669207" lon="6.390280">
        <ele>326.990000</ele>
        <time>2009-04-13T08:59:05Z</time>
      </trkpt>
      <trkpt lat="50.669239" lon="6.390162">
        <ele>326.500000</ele>
        <time>2009-04-13T08:59:11Z</time>
      </trkpt>
      <trkpt lat="50.669291" lon="6.390090">
        <ele>326.500000</ele>
        <time>2009-04-13T08:59:17Z</time>
      </trkpt>
      <trkpt lat="50.669316" lon="6.389930">
        <ele>326.500000</ele>
        <time>2009-04-13T08:59:23Z</time>
      </trkpt>
      <trkpt lat="50.669354" lon="6.389713">
        <ele>325.540000</ele>
        <time>2009-04-13T08:59:33Z</time>
      </trkpt>
      <trkpt lat="50.669461" lon="6.389544">
        <ele>323.620000</ele>
        <time>2009-04-13T08:59:44Z</time>
      </trkpt>
      <trkpt lat="50.669573" lon="6.389301">
        <ele>322.180000</ele>
        <time>2009-04-13T08:59:59Z</time>
      </trkpt>
      <trkpt lat="50.669571" lon="6.389134">
        <ele>321.220000</ele>
        <time>2009-04-13T09:00:10Z</time>
      </trkpt>
      <trkpt lat="50.669642" lon="6.388798">
        <ele>318.810000</ele>
        <time>2009-04-13T09:00:26Z</time>
      </trkpt>
      <trkpt lat="50.669669" lon="6.388768">
        <ele>318.810000</ele>
        <time>2009-04-13T09:00:29Z</time>
      </trkpt>
      <trkpt lat="50.669801" lon="6.388713">
        <ele>317.850000</ele>
        <time>2009-04-13T09:00:35Z</time>
      </trkpt>
      <trkpt lat="50.669801" lon="6.388685">
        <ele>317.370000</ele>
        <time>2009-04-13T09:00:37Z</time>
      </trkpt>
      <trkpt lat="50.669850" lon="6.388624">
        <ele>316.410000</ele>
        <time>2009-04-13T09:00:42Z</time>
      </trkpt>
      <trkpt lat="50.669859" lon="6.388540">
        <ele>315.930000</ele>
        <time>2009-04-13T09:00:47Z</time>
      </trkpt>
      <trkpt lat="50.669859" lon="6.388378">
        <ele>314.490000</ele>
        <time>2009-04-13T09:00:55Z</time>
      </trkpt>
      <trkpt lat="50.669899" lon="6.388256">
        <ele>312.570000</ele>
        <time>2009-04-13T09:01:07Z</time>
      </trkpt>
      <trkpt lat="50.669948" lon="6.388071">
        <ele>310.640000</ele>
        <time>2009-04-13T09:01:19Z</time>
      </trkpt>
      <trkpt lat="50.669964" lon="6.387789">
        <ele>308.240000</ele>
        <time>2009-04-13T09:01:35Z</time>
      </trkpt>
      <trkpt lat="50.670002" lon="6.387558">
        <ele>305.840000</ele>
        <time>2009-04-13T09:01:47Z</time>
      </trkpt>
      <trkpt lat="50.670010" lon="6.387367">
        <ele>304.390000</ele>
        <time>2009-04-13T09:01:57Z</time>
      </trkpt>
      <trkpt lat="50.670047" lon="6.387143">
        <ele>301.510000</ele>
        <time>2009-04-13T09:02:09Z</time>
      </trkpt>
      <trkpt lat="50.670047" lon="6.386957">
        <ele>301.030000</ele>
        <time>2009-04-13T09:02:17Z</time>
      </trkpt>
      <trkpt lat="50.670045" lon="6.386783">
        <ele>299.590000</ele>
        <time>2009-04-13T09:02:26Z</time>
      </trkpt>
      <trkpt lat="50.670103" lon="6.386524">
        <ele>298.150000</ele>
        <time>2009-04-13T09:02:38Z</time>
      </trkpt>
      <trkpt lat="50.670087" lon="6.386419">
        <ele>297.670000</ele>
        <time>2009-04-13T09:02:42Z</time>
      </trkpt>
      <trkpt lat="50.670201" lon="6.386332">
        <ele>297.180000</ele>
        <time>2009-04-13T09:02:56Z</time>
      </trkpt>
      <trkpt lat="50.670265" lon="6.386158">
        <ele>296.700000</ele>
        <time>2009-04-13T09:03:05Z</time>
      </trkpt>
      <trkpt lat="50.670379" lon="6.386060">
        <ele>295.260000</ele>
        <time>2009-04-13T09:03:19Z</time>
      </trkpt>
      <trkpt lat="50.670498" lon="6.385824">
        <ele>293.820000</ele>
        <time>2009-04-13T09:03:33Z</time>
      </trkpt>
      <trkpt lat="50.670545" lon="6.385754">
        <ele>292.860000</ele>
        <time>2009-04-13T09:03:38Z</time>
      </trkpt>
      <trkpt lat="50.670661" lon="6.385733">
        <ele>291.900000</ele>
        <time>2009-04-13T09:03:45Z</time>
      </trkpt>
      <trkpt lat="50.670846" lon="6.385635">
        <ele>289.490000</ele>
        <time>2009-04-13T09:03:59Z</time>
      </trkpt>
      <trkpt lat="50.670981" lon="6.385560">
        <ele>289.010000</ele>
        <time>2009-04-13T09:04:05Z</time>
      </trkpt>
      <trkpt lat="50.670998" lon="6.385527">
        <ele>288.530000</ele>
        <time>2009-04-13T09:04:07Z</time>
      </trkpt>
      <trkpt lat="50.671071" lon="6.385284">
        <ele>286.610000</ele>
        <time>2009-04-13T09:04:17Z</time>
      </trkpt>
      <trkpt lat="50.671065" lon="6.385222">
        <ele>286.130000</ele>
        <time>2009-04-13T09:04:21Z</time>
      </trkpt>
      <trkpt lat="50.671047" lon="6.385160">
        <ele>285.170000</ele>
        <time>2009-04-13T09:04:25Z</time>
      </trkpt>
      <trkpt lat="50.671070" lon="6.385085">
        <ele>284.210000</ele>
        <time>2009-04-13T09:04:31Z</time>
      </trkpt>
      <trkpt lat="50.671074" lon="6.385014">
        <ele>283.730000</ele>
        <time>2009-04-13T09:04:35Z</time>
      </trkpt>
      <trkpt lat="50.671065" lon="6.384970">
        <ele>283.250000</ele>
        <time>2009-04-13T09:04:37Z</time>
      </trkpt>
      <trkpt lat="50.671096" lon="6.384886">
        <ele>282.770000</ele>
        <time>2009-04-13T09:04:41Z</time>
      </trkpt>
      <trkpt lat="50.671119" lon="6.384815">
        <ele>282.280000</ele>
        <time>2009-04-13T09:04:44Z</time>
      </trkpt>
      <trkpt lat="50.671144" lon="6.384688">
        <ele>281.320000</ele>
        <time>2009-04-13T09:04:49Z</time>
      </trkpt>
      <trkpt lat="50.671166" lon="6.384525">
        <ele>280.360000</ele>
        <time>2009-04-13T09:04:58Z</time>
      </trkpt>
      <trkpt lat="50.671144" lon="6.384379">
        <ele>279.400000</ele>
        <time>2009-04-13T09:05:04Z</time>
      </trkpt>
      <trkpt lat="50.671222" lon="6.384013">
        <ele>277.480000</ele>
        <time>2009-04-13T09:05:14Z</time>
      </trkpt>
      <trkpt lat="50.671207" lon="6.383976">
        <ele>277.000000</ele>
        <time>2009-04-13T09:05:16Z</time>
      </trkpt>
      <trkpt lat="50.671192" lon="6.383905">
        <ele>276.520000</ele>
        <time>2009-04-13T09:05:19Z</time>
      </trkpt>
      <trkpt lat="50.671308" lon="6.383345">
        <ele>275.070000</ele>
        <time>2009-04-13T09:05:31Z</time>
      </trkpt>
      <trkpt lat="50.671262" lon="6.383296">
        <ele>274.110000</ele>
        <time>2009-04-13T09:05:36Z</time>
      </trkpt>
      <trkpt lat="50.671050" lon="6.382980">
        <ele>272.670000</ele>
        <time>2009-04-13T09:05:51Z</time>
      </trkpt>
      <trkpt lat="50.670865" lon="6.382948">
        <ele>271.230000</ele>
        <time>2009-04-13T09:06:02Z</time>
      </trkpt>
      <trkpt lat="50.670688" lon="6.382921">
        <ele>268.350000</ele>
        <time>2009-04-13T09:06:23Z</time>
      </trkpt>
      <trkpt lat="50.670544" lon="6.382837">
        <ele>266.900000</ele>
        <time>2009-04-13T09:06:36Z</time>
      </trkpt>
      <trkpt lat="50.670381" lon="6.382848">
        <ele>266.420000</ele>
        <time>2009-04-13T09:06:47Z</time>
      </trkpt>
      <trkpt lat="50.670223" lon="6.382797">
        <ele>264.980000</ele>
        <time>2009-04-13T09:07:00Z</time>
      </trkpt>
      <trkpt lat="50.670126" lon="6.382743">
        <ele>264.980000</ele>
        <time>2009-04-13T09:07:08Z</time>
      </trkpt>
      <trkpt lat="50.669973" lon="6.382741">
        <ele>264.500000</ele>
        <time>2009-04-13T09:07:20Z</time>
      </trkpt>
      <trkpt lat="50.669848" lon="6.382677">
        <ele>263.540000</ele>
        <time>2009-04-13T09:07:31Z</time>
      </trkpt>
      <trkpt lat="50.669722" lon="6.382530">
        <ele>262.580000</ele>
        <time>2009-04-13T09:07:50Z</time>
      </trkpt>
      <trkpt lat="50.669489" lon="6.382341">
        <ele>261.140000</ele>
        <time>2009-04-13T09:08:11Z</time>
      </trkpt>
      <trkpt lat="50.669447" lon="6.382325">
        <ele>259.690000</ele>
        <time>2009-04-13T09:08:27Z</time>
      </trkpt>
      <trkpt lat="50.669645" lon="6.382276">
        <ele>256.810000</ele>
        <time>2009-04-13T09:08:46Z</time>
      </trkpt>
      <trkpt lat="50.669900" lon="6.382311">
        <ele>253.440000</ele>
        <time>2009-04-13T09:09:08Z</time>
      </trkpt>
      <trkpt lat="50.670057" lon="6.382384">
        <ele>250.080000</ele>
        <time>2009-04-13T09:09:26Z</time>
      </trkpt>
      <trkpt lat="50.670263" lon="6.382406">
        <ele>247.200000</ele>
        <time>2009-04-13T09:09:45Z</time>
      </trkpt>
      <trkpt lat="50.670477" lon="6.382337">
        <ele>243.830000</ele>
        <time>2009-04-13T09:10:04Z</time>
      </trkpt>
      <trkpt lat="50.670753" lon="6.382400">
        <ele>240.470000</ele>
        <time>2009-04-13T09:10:25Z</time>
      </trkpt>
      <trkpt lat="50.671074" lon="6.382506">
        <ele>238.060000</ele>
        <time>2009-04-13T09:10:48Z</time>
      </trkpt>
      <trkpt lat="50.671384" lon="6.382735">
        <ele>236.140000</ele>
        <time>2009-04-13T09:11:08Z</time>
      </trkpt>
      <trkpt lat="50.671581" lon="6.382871">
        <ele>236.140000</ele>
        <time>2009-04-13T09:11:29Z</time>
      </trkpt>
      <trkpt lat="50.671868" lon="6.383177">
        <ele>234.220000</ele>
        <time>2009-04-13T09:11:53Z</time>
      </trkpt>
      <trkpt lat="50.671919" lon="6.383282">
        <ele>231.330000</ele>
        <time>2009-04-13T09:12:05Z</time>
      </trkpt>
      <trkpt lat="50.671976" lon="6.383285">
        <ele>227.970000</ele>
        <time>2009-04-13T09:12:15Z</time>
      </trkpt>
      <trkpt lat="50.672086" lon="6.383219">
        <ele>225.090000</ele>
        <time>2009-04-13T09:12:27Z</time>
      </trkpt>
      <trkpt lat="50.672127" lon="6.383103">
        <ele>221.240000</ele>
        <time>2009-04-13T09:12:37Z</time>
      </trkpt>
      <trkpt lat="50.672127" lon="6.383065">
        <ele>218.360000</ele>
        <time>2009-04-13T09:12:50Z</time>
      </trkpt>
      <trkpt lat="50.671520" lon="6.382442">
        <ele>214.990000</ele>
        <time>2009-04-13T09:13:02Z</time>
      </trkpt>
      <trkpt lat="50.671557" lon="6.382361">
        <ele>212.590000</ele>
        <time>2009-04-13T09:13:39Z</time>
      </trkpt>
      <trkpt lat="50.671586" lon="6.382390">
        <ele>212.110000</ele>
        <time>2009-04-13T09:13:43Z</time>
      </trkpt>
      <trkpt lat="50.671784" lon="6.382558">
        <ele>209.700000</ele>
        <time>2009-04-13T09:13:56Z</time>
      </trkpt>
      <trkpt lat="50.671894" lon="6.382460">
        <ele>201.530000</ele>
        <time>2009-04-13T09:14:56Z</time>
      </trkpt>
      <trkpt lat="50.673385" lon="6.383152">
        <ele>202.010000</ele>
        <time>2009-04-13T09:15:13Z</time>
      </trkpt>
      <trkpt lat="50.673707" lon="6.383151">
        <ele>201.050000</ele>
        <time>2009-04-13T09:15:27Z</time>
      </trkpt>
      <trkpt lat="50.673762" lon="6.383760">
        <ele>200.090000</ele>
        <time>2009-04-13T09:15:45Z</time>
      </trkpt>
      <trkpt lat="50.673682" lon="6.384240">
        <ele>199.610000</ele>
        <time>2009-04-13T09:16:04Z</time>
      </trkpt>
      <trkpt lat="50.673483" lon="6.384467">
        <ele>199.130000</ele>
        <time>2009-04-13T09:16:23Z</time>
      </trkpt>
      <trkpt lat="50.673411" lon="6.384609">
        <ele>198.170000</ele>
        <time>2009-04-13T09:16:47Z</time>
      </trkpt>
      <trkpt lat="50.673320" lon="6.384728">
        <ele>198.170000</ele>
        <time>2009-04-13T09:17:15Z</time>
      </trkpt>
      <trkpt lat="50.673061" lon="6.385222">
        <ele>198.170000</ele>
        <time>2009-04-13T09:17:38Z</time>
      </trkpt>
      <trkpt lat="50.672962" lon="6.385384">
        <ele>197.690000</ele>
        <time>2009-04-13T09:17:59Z</time>
      </trkpt>
      <trkpt lat="50.672932" lon="6.385561">
        <ele>197.690000</ele>
        <time>2009-04-13T09:18:21Z</time>
      </trkpt>
      <trkpt lat="50.672852" lon="6.385829">
        <ele>197.690000</ele>
        <time>2009-04-13T09:18:45Z</time>
      </trkpt>
      <trkpt lat="50.672833" lon="6.385861">
        <ele>197.690000</ele>
        <time>2009-04-13T09:18:47Z</time>
      </trkpt>
      <trkpt lat="50.672773" lon="6.386006">
        <ele>197.690000</ele>
        <time>2009-04-13T09:18:55Z</time>
      </trkpt>
      <trkpt lat="50.672806" lon="6.385912">
        <ele>197.690000</ele>
        <time>2009-04-13T09:44:35Z</time>
      </trkpt>
      <trkpt lat="50.672519" lon="6.386069">
        <ele>197.690000</ele>
        <time>2009-04-13T09:44:52Z</time>
      </trkpt>
      <trkpt lat="50.672575" lon="6.386077">
        <ele>201.050000</ele>
        <time>2009-04-13T09:46:17Z</time>
      </trkpt>
      <trkpt lat="50.672669" lon="6.386118">
        <ele>202.010000</ele>
        <time>2009-04-13T09:46:42Z</time>
      </trkpt>
      <trkpt lat="50.672817" lon="6.386275">
        <ele>203.460000</ele>
        <time>2009-04-13T09:47:03Z</time>
      </trkpt>
      <trkpt lat="50.672909" lon="6.386382">
        <ele>203.460000</ele>
        <time>2009-04-13T09:47:15Z</time>
      </trkpt>
      <trkpt lat="50.673214" lon="6.386522">
        <ele>206.340000</ele>
        <time>2009-04-13T09:47:39Z</time>
      </trkpt>
      <trkpt lat="50.673445" lon="6.386694">
        <ele>209.220000</ele>
        <time>2009-04-13T09:47:59Z</time>
      </trkpt>
      <trkpt lat="50.673588" lon="6.386710">
        <ele>210.670000</ele>
        <time>2009-04-13T09:48:11Z</time>
      </trkpt>
      <trkpt lat="50.673637" lon="6.386713">
        <ele>210.670000</ele>
        <time>2009-04-13T09:48:14Z</time>
      </trkpt>
      <trkpt lat="50.673661" lon="6.386724">
        <ele>210.670000</ele>
        <time>2009-04-13T09:48:17Z</time>
      </trkpt>
      <trkpt lat="50.673889" lon="6.386776">
        <ele>212.590000</ele>
        <time>2009-04-13T09:48:32Z</time>
      </trkpt>
      <trkpt lat="50.674045" lon="6.386822">
        <ele>214.510000</ele>
        <time>2009-04-13T09:48:45Z</time>
      </trkpt>
      <trkpt lat="50.674119" lon="6.386777">
        <ele>215.470000</ele>
        <time>2009-04-13T09:48:53Z</time>
      </trkpt>
      <trkpt lat="50.674288" lon="6.386704">
        <ele>216.910000</ele>
        <time>2009-04-13T09:49:07Z</time>
      </trkpt>
      <trkpt lat="50.674432" lon="6.386613">
        <ele>217.880000</ele>
        <time>2009-04-13T09:49:17Z</time>
      </trkpt>
      <trkpt lat="50.674610" lon="6.386501">
        <ele>219.800000</ele>
        <time>2009-04-13T09:49:32Z</time>
      </trkpt>
      <trkpt lat="50.674729" lon="6.386451">
        <ele>221.720000</ele>
        <time>2009-04-13T09:49:45Z</time>
      </trkpt>
      <trkpt lat="50.674746" lon="6.386455">
        <ele>221.720000</ele>
        <time>2009-04-13T09:49:46Z</time>
      </trkpt>
      <trkpt lat="50.674971" lon="6.386330">
        <ele>222.680000</ele>
        <time>2009-04-13T09:49:58Z</time>
      </trkpt>
      <trkpt lat="50.675073" lon="6.386335">
        <ele>222.680000</ele>
        <time>2009-04-13T09:50:06Z</time>
      </trkpt>
      <trkpt lat="50.675298" lon="6.386281">
        <ele>223.160000</ele>
        <time>2009-04-13T09:50:20Z</time>
      </trkpt>
      <trkpt lat="50.675388" lon="6.386292">
        <ele>223.160000</ele>
        <time>2009-04-13T09:50:25Z</time>
      </trkpt>
      <trkpt lat="50.675497" lon="6.386310">
        <ele>223.160000</ele>
        <time>2009-04-13T09:50:33Z</time>
      </trkpt>
      <trkpt lat="50.675616" lon="6.386319">
        <ele>224.120000</ele>
        <time>2009-04-13T09:50:43Z</time>
      </trkpt>
      <trkpt lat="50.675811" lon="6.386284">
        <ele>224.610000</ele>
        <time>2009-04-13T09:50:56Z</time>
      </trkpt>
      <trkpt lat="50.675831" lon="6.386275">
        <ele>224.610000</ele>
        <time>2009-04-13T09:50:57Z</time>
      </trkpt>
      <trkpt lat="50.676039" lon="6.386227">
        <ele>224.610000</ele>
        <time>2009-04-13T09:51:12Z</time>
      </trkpt>
      <trkpt lat="50.676224" lon="6.386391">
        <ele>225.090000</ele>
        <time>2009-04-13T09:51:26Z</time>
      </trkpt>
      <trkpt lat="50.676306" lon="6.386435">
        <ele>225.090000</ele>
        <time>2009-04-13T09:51:31Z</time>
      </trkpt>
      <trkpt lat="50.676345" lon="6.386507">
        <ele>225.570000</ele>
        <time>2009-04-13T09:51:37Z</time>
      </trkpt>
      <trkpt lat="50.676364" lon="6.386521">
        <ele>225.090000</ele>
        <time>2009-04-13T09:51:39Z</time>
      </trkpt>
      <trkpt lat="50.676456" lon="6.386550">
        <ele>225.570000</ele>
        <time>2009-04-13T09:51:45Z</time>
      </trkpt>
      <trkpt lat="50.676529" lon="6.386579">
        <ele>225.570000</ele>
        <time>2009-04-13T09:51:50Z</time>
      </trkpt>
      <trkpt lat="50.676569" lon="6.386598">
        <ele>226.050000</ele>
        <time>2009-04-13T09:51:53Z</time>
      </trkpt>
      <trkpt lat="50.676632" lon="6.386690">
        <ele>226.050000</ele>
        <time>2009-04-13T09:51:58Z</time>
      </trkpt>
      <trkpt lat="50.676662" lon="6.386719">
        <ele>226.530000</ele>
        <time>2009-04-13T09:52:00Z</time>
      </trkpt>
      <trkpt lat="50.676792" lon="6.386834">
        <ele>226.050000</ele>
        <time>2009-04-13T09:52:11Z</time>
      </trkpt>
      <trkpt lat="50.677098" lon="6.387010">
        <ele>227.010000</ele>
        <time>2009-04-13T09:52:33Z</time>
      </trkpt>
      <trkpt lat="50.677319" lon="6.387078">
        <ele>227.490000</ele>
        <time>2009-04-13T09:52:50Z</time>
      </trkpt>
      <trkpt lat="50.677381" lon="6.387087">
        <ele>227.970000</ele>
        <time>2009-04-13T09:52:56Z</time>
      </trkpt>
      <trkpt lat="50.677479" lon="6.387086">
        <ele>227.970000</ele>
        <time>2009-04-13T09:53:03Z</time>
      </trkpt>
      <trkpt lat="50.677674" lon="6.387011">
        <ele>228.450000</ele>
        <time>2009-04-13T09:53:17Z</time>
      </trkpt>
      <trkpt lat="50.677833" lon="6.386960">
        <ele>228.930000</ele>
        <time>2009-04-13T09:53:29Z</time>
      </trkpt>
      <trkpt lat="50.677854" lon="6.386973">
        <ele>228.450000</ele>
        <time>2009-04-13T09:53:31Z</time>
      </trkpt>
      <trkpt lat="50.677933" lon="6.386948">
        <ele>229.410000</ele>
        <time>2009-04-13T09:53:37Z</time>
      </trkpt>
      <trkpt lat="50.678141" lon="6.386881">
        <ele>229.410000</ele>
        <time>2009-04-13T09:53:55Z</time>
      </trkpt>
      <trkpt lat="50.678169" lon="6.386874">
        <ele>229.890000</ele>
        <time>2009-04-13T09:53:57Z</time>
      </trkpt>
      <trkpt lat="50.678345" lon="6.386850">
        <ele>229.890000</ele>
        <time>2009-04-13T09:54:07Z</time>
      </trkpt>
      <trkpt lat="50.678509" lon="6.386829">
        <ele>229.890000</ele>
        <time>2009-04-13T09:54:18Z</time>
      </trkpt>
      <trkpt lat="50.678547" lon="6.386825">
        <ele>229.890000</ele>
        <time>2009-04-13T09:54:20Z</time>
      </trkpt>
      <trkpt lat="50.678741" lon="6.386796">
        <ele>230.370000</ele>
        <time>2009-04-13T09:54:34Z</time>
      </trkpt>
      <trkpt lat="50.678781" lon="6.386786">
        <ele>230.370000</ele>
        <time>2009-04-13T09:54:38Z</time>
      </trkpt>
      <trkpt lat="50.678976" lon="6.386763">
        <ele>230.370000</ele>
        <time>2009-04-13T09:54:51Z</time>
      </trkpt>
      <trkpt lat="50.679183" lon="6.386744">
        <ele>230.370000</ele>
        <time>2009-04-13T09:55:05Z</time>
      </trkpt>
      <trkpt lat="50.679287" lon="6.386736">
        <ele>230.370000</ele>
        <time>2009-04-13T09:55:10Z</time>
      </trkpt>
      <trkpt lat="50.679438" lon="6.386642">
        <ele>230.370000</ele>
        <time>2009-04-13T09:55:24Z</time>
      </trkpt>
      <trkpt lat="50.679613" lon="6.386520">
        <ele>230.850000</ele>
        <time>2009-04-13T09:55:36Z</time>
      </trkpt>
      <trkpt lat="50.679676" lon="6.386477">
        <ele>230.850000</ele>
        <time>2009-04-13T09:55:40Z</time>
      </trkpt>
      <trkpt lat="50.679718" lon="6.386387">
        <ele>230.850000</ele>
        <time>2009-04-13T09:55:46Z</time>
      </trkpt>
      <trkpt lat="50.679762" lon="6.386332">
        <ele>230.850000</ele>
        <time>2009-04-13T09:55:50Z</time>
      </trkpt>
      <trkpt lat="50.679862" lon="6.386195">
        <ele>230.850000</ele>
        <time>2009-04-13T09:56:00Z</time>
      </trkpt>
      <trkpt lat="50.680030" lon="6.386041">
        <ele>231.330000</ele>
        <time>2009-04-13T09:56:15Z</time>
      </trkpt>
      <trkpt lat="50.680292" lon="6.386199">
        <ele>231.330000</ele>
        <time>2009-04-13T09:56:31Z</time>
      </trkpt>
      <trkpt lat="50.680339" lon="6.386280">
        <ele>231.810000</ele>
        <time>2009-04-13T09:56:38Z</time>
      </trkpt>
      <trkpt lat="50.680434" lon="6.386305">
        <ele>231.810000</ele>
        <time>2009-04-13T09:56:43Z</time>
      </trkpt>
      <trkpt lat="50.680498" lon="6.386295">
        <ele>231.810000</ele>
        <time>2009-04-13T09:56:47Z</time>
      </trkpt>
      <trkpt lat="50.680668" lon="6.386266">
        <ele>231.810000</ele>
        <time>2009-04-13T09:57:01Z</time>
      </trkpt>
      <trkpt lat="50.680681" lon="6.386265">
        <ele>231.810000</ele>
        <time>2009-04-13T09:57:02Z</time>
      </trkpt>
      <trkpt lat="50.680800" lon="6.386248">
        <ele>232.300000</ele>
        <time>2009-04-13T09:57:10Z</time>
      </trkpt>
      <trkpt lat="50.680847" lon="6.386280">
        <ele>232.300000</ele>
        <time>2009-04-13T09:57:13Z</time>
      </trkpt>
      <trkpt lat="50.680961" lon="6.386305">
        <ele>232.780000</ele>
        <time>2009-04-13T09:57:20Z</time>
      </trkpt>
      <trkpt lat="50.681026" lon="6.386377">
        <ele>232.780000</ele>
        <time>2009-04-13T09:57:26Z</time>
      </trkpt>
      <trkpt lat="50.681095" lon="6.386465">
        <ele>232.780000</ele>
        <time>2009-04-13T09:57:32Z</time>
      </trkpt>
      <trkpt lat="50.681177" lon="6.386574">
        <ele>233.260000</ele>
        <time>2009-04-13T09:57:43Z</time>
      </trkpt>
      <trkpt lat="50.681207" lon="6.386995">
        <ele>233.740000</ele>
        <time>2009-04-13T09:58:00Z</time>
      </trkpt>
      <trkpt lat="50.681219" lon="6.387084">
        <ele>233.740000</ele>
        <time>2009-04-13T09:58:06Z</time>
      </trkpt>
      <trkpt lat="50.681328" lon="6.387337">
        <ele>233.740000</ele>
        <time>2009-04-13T09:58:21Z</time>
      </trkpt>
      <trkpt lat="50.681410" lon="6.387558">
        <ele>233.740000</ele>
        <time>2009-04-13T09:58:34Z</time>
      </trkpt>
      <trkpt lat="50.681467" lon="6.387765">
        <ele>234.220000</ele>
        <time>2009-04-13T09:58:47Z</time>
      </trkpt>
      <trkpt lat="50.681516" lon="6.387919">
        <ele>234.220000</ele>
        <time>2009-04-13T09:58:56Z</time>
      </trkpt>
      <trkpt lat="50.681582" lon="6.388102">
        <ele>233.740000</ele>
        <time>2009-04-13T09:59:09Z</time>
      </trkpt>
      <trkpt lat="50.681646" lon="6.388100">
        <ele>232.780000</ele>
        <time>2009-04-13T09:59:15Z</time>
      </trkpt>
      <trkpt lat="50.681673" lon="6.388043">
        <ele>232.300000</ele>
        <time>2009-04-13T09:59:27Z</time>
      </trkpt>
      <trkpt lat="50.681655" lon="6.388049">
        <ele>232.300000</ele>
        <time>2009-04-13T09:59:29Z</time>
      </trkpt>
      <trkpt lat="50.681509" lon="6.388533">
        <ele>231.330000</ele>
        <time>2009-04-13T09:59:43Z</time>
      </trkpt>
      <trkpt lat="50.681437" lon="6.388803">
        <ele>230.370000</ele>
        <time>2009-04-13T09:59:55Z</time>
      </trkpt>
      <trkpt lat="50.681378" lon="6.389150">
        <ele>229.410000</ele>
        <time>2009-04-13T10:00:10Z</time>
      </trkpt>
      <trkpt lat="50.681394" lon="6.389405">
        <ele>228.450000</ele>
        <time>2009-04-13T10:00:19Z</time>
      </trkpt>
      <trkpt lat="50.681340" lon="6.389553">
        <ele>227.970000</ele>
        <time>2009-04-13T10:00:29Z</time>
      </trkpt>
      <trkpt lat="50.681302" lon="6.389978">
        <ele>227.010000</ele>
        <time>2009-04-13T10:00:45Z</time>
      </trkpt>
      <trkpt lat="50.681286" lon="6.390081">
        <ele>226.530000</ele>
        <time>2009-04-13T10:00:50Z</time>
      </trkpt>
      <trkpt lat="50.681258" lon="6.390190">
        <ele>226.050000</ele>
        <time>2009-04-13T10:00:54Z</time>
      </trkpt>
      <trkpt lat="50.681229" lon="6.390535">
        <ele>225.090000</ele>
        <time>2009-04-13T10:01:10Z</time>
      </trkpt>
      <trkpt lat="50.681227" lon="6.390550">
        <ele>225.090000</ele>
        <time>2009-04-13T10:01:11Z</time>
      </trkpt>
      <trkpt lat="50.681161" lon="6.390812">
        <ele>224.610000</ele>
        <time>2009-04-13T10:01:26Z</time>
      </trkpt>
      <trkpt lat="50.681152" lon="6.390827">
        <ele>224.610000</ele>
        <time>2009-04-13T10:01:27Z</time>
      </trkpt>
      <trkpt lat="50.681109" lon="6.390882">
        <ele>224.610000</ele>
        <time>2009-04-13T10:01:31Z</time>
      </trkpt>
      <trkpt lat="50.681016" lon="6.391186">
        <ele>223.640000</ele>
        <time>2009-04-13T10:01:45Z</time>
      </trkpt>
      <trkpt lat="50.680973" lon="6.391318">
        <ele>224.120000</ele>
        <time>2009-04-13T10:01:52Z</time>
      </trkpt>
      <trkpt lat="50.680924" lon="6.391613">
        <ele>224.120000</ele>
        <time>2009-04-13T10:02:06Z</time>
      </trkpt>
      <trkpt lat="50.680944" lon="6.391863">
        <ele>223.640000</ele>
        <time>2009-04-13T10:02:23Z</time>
      </trkpt>
      <trkpt lat="50.680955" lon="6.391913">
        <ele>223.160000</ele>
        <time>2009-04-13T10:02:26Z</time>
      </trkpt>
      <trkpt lat="50.681027" lon="6.392441">
        <ele>221.720000</ele>
        <time>2009-04-13T10:02:49Z</time>
      </trkpt>
      <trkpt lat="50.681113" lon="6.392510">
        <ele>221.240000</ele>
        <time>2009-04-13T10:02:57Z</time>
      </trkpt>
      <trkpt lat="50.681316" lon="6.392710">
        <ele>220.280000</ele>
        <time>2009-04-13T10:03:11Z</time>
      </trkpt>
      <trkpt lat="50.681665" lon="6.392754">
        <ele>219.800000</ele>
        <time>2009-04-13T10:03:22Z</time>
      </trkpt>
      <trkpt lat="50.681778" lon="6.392737">
        <ele>219.800000</ele>
        <time>2009-04-13T10:03:29Z</time>
      </trkpt>
      <trkpt lat="50.681913" lon="6.392781">
        <ele>219.320000</ele>
        <time>2009-04-13T10:03:42Z</time>
      </trkpt>
      <trkpt lat="50.682210" lon="6.392665">
        <ele>218.360000</ele>
        <time>2009-04-13T10:04:03Z</time>
      </trkpt>
      <trkpt lat="50.682404" lon="6.392683">
        <ele>218.360000</ele>
        <time>2009-04-13T10:04:15Z</time>
      </trkpt>
      <trkpt lat="50.682605" lon="6.392713">
        <ele>217.880000</ele>
        <time>2009-04-13T10:04:30Z</time>
      </trkpt>
      <trkpt lat="50.682617" lon="6.392713">
        <ele>217.880000</ele>
        <time>2009-04-13T10:04:31Z</time>
      </trkpt>
      <trkpt lat="50.682934" lon="6.392721">
        <ele>217.400000</ele>
        <time>2009-04-13T10:04:50Z</time>
      </trkpt>
      <trkpt lat="50.683142" lon="6.392733">
        <ele>216.910000</ele>
        <time>2009-04-13T10:05:02Z</time>
      </trkpt>
      <trkpt lat="50.683367" lon="6.392695">
        <ele>216.430000</ele>
        <time>2009-04-13T10:05:15Z</time>
      </trkpt>
      <trkpt lat="50.683396" lon="6.392683">
        <ele>216.430000</ele>
        <time>2009-04-13T10:05:17Z</time>
      </trkpt>
      <trkpt lat="50.683488" lon="6.392717">
        <ele>216.430000</ele>
        <time>2009-04-13T10:05:24Z</time>
      </trkpt>
      <trkpt lat="50.683536" lon="6.392710">
        <ele>216.430000</ele>
        <time>2009-04-13T10:05:28Z</time>
      </trkpt>
      <trkpt lat="50.683768" lon="6.392731">
        <ele>215.950000</ele>
        <time>2009-04-13T10:05:43Z</time>
      </trkpt>
      <trkpt lat="50.683901" lon="6.392791">
        <ele>215.470000</ele>
        <time>2009-04-13T10:05:56Z</time>
      </trkpt>
      <trkpt lat="50.684053" lon="6.392826">
        <ele>215.470000</ele>
        <time>2009-04-13T10:06:05Z</time>
      </trkpt>
      <trkpt lat="50.684182" lon="6.392871">
        <ele>215.950000</ele>
        <time>2009-04-13T10:06:13Z</time>
      </trkpt>
      <trkpt lat="50.684263" lon="6.392889">
        <ele>215.950000</ele>
        <time>2009-04-13T10:06:19Z</time>
      </trkpt>
      <trkpt lat="50.684435" lon="6.392923">
        <ele>215.950000</ele>
        <time>2009-04-13T10:06:33Z</time>
      </trkpt>
      <trkpt lat="50.684615" lon="6.393132">
        <ele>216.430000</ele>
        <time>2009-04-13T10:06:49Z</time>
      </trkpt>
      <trkpt lat="50.684703" lon="6.393195">
        <ele>217.400000</ele>
        <time>2009-04-13T10:06:55Z</time>
      </trkpt>
      <trkpt lat="50.684854" lon="6.393296">
        <ele>218.360000</ele>
        <time>2009-04-13T10:07:07Z</time>
      </trkpt>
      <trkpt lat="50.684989" lon="6.393340">
        <ele>219.320000</ele>
        <time>2009-04-13T10:07:16Z</time>
      </trkpt>
      <trkpt lat="50.685101" lon="6.393422">
        <ele>219.800000</ele>
        <time>2009-04-13T10:07:23Z</time>
      </trkpt>
      <trkpt lat="50.685134" lon="6.393441">
        <ele>220.280000</ele>
        <time>2009-04-13T10:07:26Z</time>
      </trkpt>
      <trkpt lat="50.685179" lon="6.393662">
        <ele>220.760000</ele>
        <time>2009-04-13T10:07:34Z</time>
      </trkpt>
      <trkpt lat="50.685298" lon="6.393783">
        <ele>221.240000</ele>
        <time>2009-04-13T10:07:45Z</time>
      </trkpt>
      <trkpt lat="50.685362" lon="6.393956">
        <ele>220.760000</ele>
        <time>2009-04-13T10:07:53Z</time>
      </trkpt>
      <trkpt lat="50.685413" lon="6.394033">
        <ele>220.280000</ele>
        <time>2009-04-13T10:07:58Z</time>
      </trkpt>
      <trkpt lat="50.685524" lon="6.394371">
        <ele>219.320000</ele>
        <time>2009-04-13T10:08:15Z</time>
      </trkpt>
      <trkpt lat="50.685570" lon="6.394551">
        <ele>218.360000</ele>
        <time>2009-04-13T10:08:22Z</time>
      </trkpt>
      <trkpt lat="50.685674" lon="6.394854">
        <ele>217.880000</ele>
        <time>2009-04-13T10:08:37Z</time>
      </trkpt>
      <trkpt lat="50.685755" lon="6.395194">
        <ele>215.950000</ele>
        <time>2009-04-13T10:08:55Z</time>
      </trkpt>
      <trkpt lat="50.685766" lon="6.395262">
        <ele>214.990000</ele>
        <time>2009-04-13T10:08:59Z</time>
      </trkpt>
      <trkpt lat="50.685787" lon="6.395578">
        <ele>211.630000</ele>
        <time>2009-04-13T10:09:13Z</time>
      </trkpt>
      <trkpt lat="50.685843" lon="6.395819">
        <ele>209.700000</ele>
        <time>2009-04-13T10:09:26Z</time>
      </trkpt>
      <trkpt lat="50.685855" lon="6.395842">
        <ele>209.700000</ele>
        <time>2009-04-13T10:09:28Z</time>
      </trkpt>
      <trkpt lat="50.685943" lon="6.395991">
        <ele>209.220000</ele>
        <time>2009-04-13T10:09:39Z</time>
      </trkpt>
      <trkpt lat="50.685998" lon="6.396320">
        <ele>208.260000</ele>
        <time>2009-04-13T10:09:53Z</time>
      </trkpt>
      <trkpt lat="50.686076" lon="6.396783">
        <ele>206.820000</ele>
        <time>2009-04-13T10:10:14Z</time>
      </trkpt>
      <trkpt lat="50.686088" lon="6.397147">
        <ele>206.340000</ele>
        <time>2009-04-13T10:10:29Z</time>
      </trkpt>
      <trkpt lat="50.686120" lon="6.397332">
        <ele>205.860000</ele>
        <time>2009-04-13T10:10:37Z</time>
      </trkpt>
      <trkpt lat="50.686114" lon="6.397423">
        <ele>205.860000</ele>
        <time>2009-04-13T10:10:41Z</time>
      </trkpt>
      <trkpt lat="50.686138" lon="6.397633">
        <ele>205.380000</ele>
        <time>2009-04-13T10:10:50Z</time>
      </trkpt>
      <trkpt lat="50.686096" lon="6.397856">
        <ele>205.380000</ele>
        <time>2009-04-13T10:11:02Z</time>
      </trkpt>
      <trkpt lat="50.686084" lon="6.397948">
        <ele>204.900000</ele>
        <time>2009-04-13T10:11:06Z</time>
      </trkpt>
      <trkpt lat="50.686050" lon="6.398340">
        <ele>204.900000</ele>
        <time>2009-04-13T10:11:21Z</time>
      </trkpt>
      <trkpt lat="50.685993" lon="6.398618">
        <ele>203.940000</ele>
        <time>2009-04-13T10:11:35Z</time>
      </trkpt>
      <trkpt lat="50.685921" lon="6.398902">
        <ele>203.940000</ele>
        <time>2009-04-13T10:11:49Z</time>
      </trkpt>
      <trkpt lat="50.685836" lon="6.399235">
        <ele>203.460000</ele>
        <time>2009-04-13T10:12:03Z</time>
      </trkpt>
      <trkpt lat="50.685761" lon="6.399500">
        <ele>203.460000</ele>
        <time>2009-04-13T10:12:15Z</time>
      </trkpt>
      <trkpt lat="50.685754" lon="6.399569">
        <ele>203.460000</ele>
        <time>2009-04-13T10:12:19Z</time>
      </trkpt>
      <trkpt lat="50.685719" lon="6.399900">
        <ele>203.460000</ele>
        <time>2009-04-13T10:12:35Z</time>
      </trkpt>
      <trkpt lat="50.685696" lon="6.400205">
        <ele>202.980000</ele>
        <time>2009-04-13T10:12:47Z</time>
      </trkpt>
      <trkpt lat="50.685682" lon="6.400514">
        <ele>202.980000</ele>
        <time>2009-04-13T10:13:01Z</time>
      </trkpt>
      <trkpt lat="50.685699" lon="6.400706">
        <ele>202.980000</ele>
        <time>2009-04-13T10:13:15Z</time>
      </trkpt>
      <trkpt lat="50.685756" lon="6.401083">
        <ele>202.490000</ele>
        <time>2009-04-13T10:13:33Z</time>
      </trkpt>
      <trkpt lat="50.685802" lon="6.401356">
        <ele>202.010000</ele>
        <time>2009-04-13T10:13:46Z</time>
      </trkpt>
      <trkpt lat="50.685860" lon="6.401644">
        <ele>202.010000</ele>
        <time>2009-04-13T10:13:59Z</time>
      </trkpt>
      <trkpt lat="50.685932" lon="6.401889">
        <ele>201.530000</ele>
        <time>2009-04-13T10:14:11Z</time>
      </trkpt>
      <trkpt lat="50.685975" lon="6.402081">
        <ele>201.530000</ele>
        <time>2009-04-13T10:14:20Z</time>
      </trkpt>
      <trkpt lat="50.685994" lon="6.402127">
        <ele>202.010000</ele>
        <time>2009-04-13T10:14:23Z</time>
      </trkpt>
      <trkpt lat="50.686004" lon="6.402241">
        <ele>201.530000</ele>
        <time>2009-04-13T10:14:27Z</time>
      </trkpt>
      <trkpt lat="50.686150" lon="6.402499">
        <ele>202.010000</ele>
        <time>2009-04-13T10:14:42Z</time>
      </trkpt>
      <trkpt lat="50.686183" lon="6.402593">
        <ele>202.490000</ele>
        <time>2009-04-13T10:14:47Z</time>
      </trkpt>
      <trkpt lat="50.686337" lon="6.402853">
        <ele>202.980000</ele>
        <time>2009-04-13T10:15:02Z</time>
      </trkpt>
      <trkpt lat="50.686538" lon="6.403072">
        <ele>203.940000</ele>
        <time>2009-04-13T10:15:20Z</time>
      </trkpt>
      <trkpt lat="50.686727" lon="6.403348">
        <ele>203.460000</ele>
        <time>2009-04-13T10:15:37Z</time>
      </trkpt>
      <trkpt lat="50.686882" lon="6.403479">
        <ele>203.940000</ele>
        <time>2009-04-13T10:15:50Z</time>
      </trkpt>
      <trkpt lat="50.686940" lon="6.403497">
        <ele>204.420000</ele>
        <time>2009-04-13T10:15:54Z</time>
      </trkpt>
      <trkpt lat="50.687018" lon="6.403575">
        <ele>204.420000</ele>
        <time>2009-04-13T10:16:00Z</time>
      </trkpt>
      <trkpt lat="50.687212" lon="6.403780">
        <ele>204.900000</ele>
        <time>2009-04-13T10:16:16Z</time>
      </trkpt>
      <trkpt lat="50.687441" lon="6.403941">
        <ele>205.380000</ele>
        <time>2009-04-13T10:16:31Z</time>
      </trkpt>
      <trkpt lat="50.687535" lon="6.404010">
        <ele>205.860000</ele>
        <time>2009-04-13T10:16:37Z</time>
      </trkpt>
      <trkpt lat="50.687678" lon="6.404054">
        <ele>205.860000</ele>
        <time>2009-04-13T10:16:46Z</time>
      </trkpt>
      <trkpt lat="50.687824" lon="6.404150">
        <ele>205.860000</ele>
        <time>2009-04-13T10:16:56Z</time>
      </trkpt>
      <trkpt lat="50.687847" lon="6.404207">
        <ele>206.820000</ele>
        <time>2009-04-13T10:17:00Z</time>
      </trkpt>
      <trkpt lat="50.687919" lon="6.404283">
        <ele>205.860000</ele>
        <time>2009-04-13T10:17:06Z</time>
      </trkpt>
      <trkpt lat="50.688030" lon="6.404459">
        <ele>205.860000</ele>
        <time>2009-04-13T10:17:16Z</time>
      </trkpt>
      <trkpt lat="50.688157" lon="6.404683">
        <ele>205.860000</ele>
        <time>2009-04-13T10:17:29Z</time>
      </trkpt>
      <trkpt lat="50.688243" lon="6.404841">
        <ele>205.860000</ele>
        <time>2009-04-13T10:17:38Z</time>
      </trkpt>
      <trkpt lat="50.688384" lon="6.405093">
        <ele>205.860000</ele>
        <time>2009-04-13T10:17:53Z</time>
      </trkpt>
      <trkpt lat="50.688527" lon="6.405274">
        <ele>205.860000</ele>
        <time>2009-04-13T10:18:06Z</time>
      </trkpt>
      <trkpt lat="50.688637" lon="6.405388">
        <ele>205.380000</ele>
        <time>2009-04-13T10:18:15Z</time>
      </trkpt>
      <trkpt lat="50.688742" lon="6.405778">
        <ele>205.380000</ele>
        <time>2009-04-13T10:18:33Z</time>
      </trkpt>
      <trkpt lat="50.688731" lon="6.406127">
        <ele>205.380000</ele>
        <time>2009-04-13T10:18:45Z</time>
      </trkpt>
      <trkpt lat="50.688739" lon="6.406191">
        <ele>205.380000</ele>
        <time>2009-04-13T10:18:48Z</time>
      </trkpt>
      <trkpt lat="50.688740" lon="6.406344">
        <ele>205.380000</ele>
        <time>2009-04-13T10:18:54Z</time>
      </trkpt>
      <trkpt lat="50.688675" lon="6.406597">
        <ele>205.860000</ele>
        <time>2009-04-13T10:19:07Z</time>
      </trkpt>
      <trkpt lat="50.688451" lon="6.406695">
        <ele>206.340000</ele>
        <time>2009-04-13T10:19:19Z</time>
      </trkpt>
      <trkpt lat="50.688395" lon="6.406692">
        <ele>206.340000</ele>
        <time>2009-04-13T10:19:23Z</time>
      </trkpt>
      <trkpt lat="50.688163" lon="6.406742">
        <ele>207.300000</ele>
        <time>2009-04-13T10:19:39Z</time>
      </trkpt>
      <trkpt lat="50.688138" lon="6.406729">
        <ele>207.780000</ele>
        <time>2009-04-13T10:19:41Z</time>
      </trkpt>
      <trkpt lat="50.687956" lon="6.406726">
        <ele>207.780000</ele>
        <time>2009-04-13T10:19:54Z</time>
      </trkpt>
      <trkpt lat="50.687843" lon="6.406728">
        <ele>208.260000</ele>
        <time>2009-04-13T10:20:06Z</time>
      </trkpt>
      <trkpt lat="50.687619" lon="6.406770">
        <ele>209.220000</ele>
        <time>2009-04-13T10:20:21Z</time>
      </trkpt>
      <trkpt lat="50.687410" lon="6.406808">
        <ele>210.190000</ele>
        <time>2009-04-13T10:20:36Z</time>
      </trkpt>
      <trkpt lat="50.687302" lon="6.406828">
        <ele>211.150000</ele>
        <time>2009-04-13T10:20:43Z</time>
      </trkpt>
      <trkpt lat="50.687077" lon="6.406892">
        <ele>212.590000</ele>
        <time>2009-04-13T10:21:00Z</time>
      </trkpt>
      <trkpt lat="50.686950" lon="6.406934">
        <ele>213.550000</ele>
        <time>2009-04-13T10:21:09Z</time>
      </trkpt>
      <trkpt lat="50.686876" lon="6.406959">
        <ele>214.030000</ele>
        <time>2009-04-13T10:21:15Z</time>
      </trkpt>
      <trkpt lat="50.686673" lon="6.407095">
        <ele>215.470000</ele>
        <time>2009-04-13T10:21:31Z</time>
      </trkpt>
      <trkpt lat="50.686511" lon="6.407246">
        <ele>216.910000</ele>
        <time>2009-04-13T10:21:44Z</time>
      </trkpt>
      <trkpt lat="50.686345" lon="6.407407">
        <ele>217.880000</ele>
        <time>2009-04-13T10:21:59Z</time>
      </trkpt>
      <trkpt lat="50.686257" lon="6.407497">
        <ele>218.840000</ele>
        <time>2009-04-13T10:22:06Z</time>
      </trkpt>
      <trkpt lat="50.686076" lon="6.407690">
        <ele>219.320000</ele>
        <time>2009-04-13T10:22:20Z</time>
      </trkpt>
      <trkpt lat="50.685934" lon="6.407932">
        <ele>220.280000</ele>
        <time>2009-04-13T10:22:35Z</time>
      </trkpt>
      <trkpt lat="50.685785" lon="6.408163">
        <ele>220.760000</ele>
        <time>2009-04-13T10:22:49Z</time>
      </trkpt>
      <trkpt lat="50.685650" lon="6.408333">
        <ele>220.760000</ele>
        <time>2009-04-13T10:23:03Z</time>
      </trkpt>
      <trkpt lat="50.685532" lon="6.408598">
        <ele>221.240000</ele>
        <time>2009-04-13T10:23:17Z</time>
      </trkpt>
      <trkpt lat="50.685388" lon="6.408810">
        <ele>221.720000</ele>
        <time>2009-04-13T10:23:30Z</time>
      </trkpt>
      <trkpt lat="50.685272" lon="6.408988">
        <ele>222.200000</ele>
        <time>2009-04-13T10:23:41Z</time>
      </trkpt>
      <trkpt lat="50.685071" lon="6.409091">
        <ele>222.680000</ele>
        <time>2009-04-13T10:23:58Z</time>
      </trkpt>
      <trkpt lat="50.685062" lon="6.409088">
        <ele>222.680000</ele>
        <time>2009-04-13T10:23:59Z</time>
      </trkpt>
      <trkpt lat="50.684928" lon="6.408847">
        <ele>223.160000</ele>
        <time>2009-04-13T10:24:16Z</time>
      </trkpt>
      <trkpt lat="50.684858" lon="6.408677">
        <ele>226.530000</ele>
        <time>2009-04-13T10:24:28Z</time>
      </trkpt>
      <trkpt lat="50.684796" lon="6.408614">
        <ele>229.410000</ele>
        <time>2009-04-13T10:24:40Z</time>
      </trkpt>
      <trkpt lat="50.684725" lon="6.408787">
        <ele>232.300000</ele>
        <time>2009-04-13T10:25:02Z</time>
      </trkpt>
      <trkpt lat="50.684592" lon="6.408877">
        <ele>235.180000</ele>
        <time>2009-04-13T10:25:15Z</time>
      </trkpt>
      <trkpt lat="50.684572" lon="6.408711">
        <ele>235.660000</ele>
        <time>2009-04-13T10:25:28Z</time>
      </trkpt>
      <trkpt lat="50.684525" lon="6.408355">
        <ele>237.580000</ele>
        <time>2009-04-13T10:25:51Z</time>
      </trkpt>
      <trkpt lat="50.684543" lon="6.408151">
        <ele>240.950000</ele>
        <time>2009-04-13T10:26:03Z</time>
      </trkpt>
      <trkpt lat="50.684550" lon="6.407992">
        <ele>242.870000</ele>
        <time>2009-04-13T10:26:12Z</time>
      </trkpt>
      <trkpt lat="50.684490" lon="6.407832">
        <ele>246.230000</ele>
        <time>2009-04-13T10:26:28Z</time>
      </trkpt>
      <trkpt lat="50.684425" lon="6.407748">
        <ele>249.120000</ele>
        <time>2009-04-13T10:26:43Z</time>
      </trkpt>
      <trkpt lat="50.684325" lon="6.407618">
        <ele>252.480000</ele>
        <time>2009-04-13T10:26:57Z</time>
      </trkpt>
      <trkpt lat="50.684243" lon="6.407505">
        <ele>255.370000</ele>
        <time>2009-04-13T10:27:10Z</time>
      </trkpt>
      <trkpt lat="50.684216" lon="6.407325">
        <ele>258.730000</ele>
        <time>2009-04-13T10:27:31Z</time>
      </trkpt>
      <trkpt lat="50.684066" lon="6.407269">
        <ele>261.620000</ele>
        <time>2009-04-13T10:27:48Z</time>
      </trkpt>
      <trkpt lat="50.684048" lon="6.407303">
        <ele>263.060000</ele>
        <time>2009-04-13T10:28:04Z</time>
      </trkpt>
      <trkpt lat="50.684015" lon="6.407326">
        <ele>266.420000</ele>
        <time>2009-04-13T10:28:23Z</time>
      </trkpt>
      <trkpt lat="50.683920" lon="6.407387">
        <ele>270.270000</ele>
        <time>2009-04-13T10:28:40Z</time>
      </trkpt>
      <trkpt lat="50.683829" lon="6.407550">
        <ele>273.150000</ele>
        <time>2009-04-13T10:28:54Z</time>
      </trkpt>
      <trkpt lat="50.683816" lon="6.407458">
        <ele>274.110000</ele>
        <time>2009-04-13T10:29:18Z</time>
      </trkpt>
      <trkpt lat="50.683767" lon="6.407114">
        <ele>275.560000</ele>
        <time>2009-04-13T10:29:59Z</time>
      </trkpt>
      <trkpt lat="50.683673" lon="6.406883">
        <ele>277.000000</ele>
        <time>2009-04-13T10:30:14Z</time>
      </trkpt>
      <trkpt lat="50.683568" lon="6.406790">
        <ele>279.880000</ele>
        <time>2009-04-13T10:30:28Z</time>
      </trkpt>
      <trkpt lat="50.683471" lon="6.406760">
        <ele>282.280000</ele>
        <time>2009-04-13T10:30:42Z</time>
      </trkpt>
      <trkpt lat="50.683353" lon="6.406659">
        <ele>285.650000</ele>
        <time>2009-04-13T10:30:57Z</time>
      </trkpt>
      <trkpt lat="50.683181" lon="6.406658">
        <ele>288.530000</ele>
        <time>2009-04-13T10:31:15Z</time>
      </trkpt>
      <trkpt lat="50.683148" lon="6.406680">
        <ele>289.010000</ele>
        <time>2009-04-13T10:31:18Z</time>
      </trkpt>
      <trkpt lat="50.683056" lon="6.406590">
        <ele>290.460000</ele>
        <time>2009-04-13T10:31:31Z</time>
      </trkpt>
      <trkpt lat="50.683087" lon="6.406365">
        <ele>292.380000</ele>
        <time>2009-04-13T10:31:44Z</time>
      </trkpt>
      <trkpt lat="50.683157" lon="6.406113">
        <ele>294.300000</ele>
        <time>2009-04-13T10:31:59Z</time>
      </trkpt>
      <trkpt lat="50.683177" lon="6.406035">
        <ele>295.260000</ele>
        <time>2009-04-13T10:32:06Z</time>
      </trkpt>
      <trkpt lat="50.683214" lon="6.405824">
        <ele>295.740000</ele>
        <time>2009-04-13T10:32:16Z</time>
      </trkpt>
      <trkpt lat="50.683279" lon="6.405545">
        <ele>297.180000</ele>
        <time>2009-04-13T10:32:31Z</time>
      </trkpt>
      <trkpt lat="50.683297" lon="6.405507">
        <ele>297.670000</ele>
        <time>2009-04-13T10:32:35Z</time>
      </trkpt>
      <trkpt lat="50.683354" lon="6.405328">
        <ele>298.150000</ele>
        <time>2009-04-13T10:32:44Z</time>
      </trkpt>
      <trkpt lat="50.683485" lon="6.405037">
        <ele>299.590000</ele>
        <time>2009-04-13T10:33:01Z</time>
      </trkpt>
      <trkpt lat="50.683523" lon="6.404978">
        <ele>299.590000</ele>
        <time>2009-04-13T10:33:06Z</time>
      </trkpt>
      <trkpt lat="50.683586" lon="6.404792">
        <ele>300.550000</ele>
        <time>2009-04-13T10:33:16Z</time>
      </trkpt>
      <trkpt lat="50.683610" lon="6.404723">
        <ele>301.030000</ele>
        <time>2009-04-13T10:33:20Z</time>
      </trkpt>
      <trkpt lat="50.683643" lon="6.404717">
        <ele>301.030000</ele>
        <time>2009-04-13T10:33:22Z</time>
      </trkpt>
      <trkpt lat="50.683719" lon="6.404456">
        <ele>301.990000</ele>
        <time>2009-04-13T10:33:38Z</time>
      </trkpt>
      <trkpt lat="50.683803" lon="6.404223">
        <ele>302.950000</ele>
        <time>2009-04-13T10:33:52Z</time>
      </trkpt>
      <trkpt lat="50.683807" lon="6.404194">
        <ele>302.950000</ele>
        <time>2009-04-13T10:33:54Z</time>
      </trkpt>
      <trkpt lat="50.683871" lon="6.403955">
        <ele>304.390000</ele>
        <time>2009-04-13T10:34:08Z</time>
      </trkpt>
      <trkpt lat="50.683884" lon="6.403721">
        <ele>306.800000</ele>
        <time>2009-04-13T10:34:23Z</time>
      </trkpt>
      <trkpt lat="50.683879" lon="6.403455">
        <ele>309.680000</ele>
        <time>2009-04-13T10:34:40Z</time>
      </trkpt>
      <trkpt lat="50.683838" lon="6.403238">
        <ele>312.570000</ele>
        <time>2009-04-13T10:34:55Z</time>
      </trkpt>
      <trkpt lat="50.683842" lon="6.403193">
        <ele>312.570000</ele>
        <time>2009-04-13T10:34:57Z</time>
      </trkpt>
      <trkpt lat="50.683806" lon="6.402960">
        <ele>314.970000</ele>
        <time>2009-04-13T10:35:12Z</time>
      </trkpt>
      <trkpt lat="50.683792" lon="6.402933">
        <ele>315.930000</ele>
        <time>2009-04-13T10:35:15Z</time>
      </trkpt>
      <trkpt lat="50.683798" lon="6.402851">
        <ele>316.410000</ele>
        <time>2009-04-13T10:35:20Z</time>
      </trkpt>
      <trkpt lat="50.683753" lon="6.402654">
        <ele>318.810000</ele>
        <time>2009-04-13T10:35:35Z</time>
      </trkpt>
      <trkpt lat="50.683703" lon="6.402503">
        <ele>320.260000</ele>
        <time>2009-04-13T10:35:46Z</time>
      </trkpt>
      <trkpt lat="50.683672" lon="6.402351">
        <ele>321.220000</ele>
        <time>2009-04-13T10:35:57Z</time>
      </trkpt>
      <trkpt lat="50.683580" lon="6.402093">
        <ele>322.660000</ele>
        <time>2009-04-13T10:36:09Z</time>
      </trkpt>
      <trkpt lat="50.683542" lon="6.401862">
        <ele>324.100000</ele>
        <time>2009-04-13T10:36:24Z</time>
      </trkpt>
      <trkpt lat="50.683540" lon="6.401816">
        <ele>324.580000</ele>
        <time>2009-04-13T10:36:27Z</time>
      </trkpt>
      <trkpt lat="50.683498" lon="6.401699">
        <ele>325.540000</ele>
        <time>2009-04-13T10:36:36Z</time>
      </trkpt>
      <trkpt lat="50.683488" lon="6.401658">
        <ele>325.540000</ele>
        <time>2009-04-13T10:36:38Z</time>
      </trkpt>
      <trkpt lat="50.683422" lon="6.401457">
        <ele>326.500000</ele>
        <time>2009-04-13T10:36:52Z</time>
      </trkpt>
      <trkpt lat="50.683430" lon="6.401427">
        <ele>326.500000</ele>
        <time>2009-04-13T10:36:53Z</time>
      </trkpt>
      <trkpt lat="50.683349" lon="6.401216">
        <ele>327.950000</ele>
        <time>2009-04-13T10:37:08Z</time>
      </trkpt>
      <trkpt lat="50.683243" lon="6.400962">
        <ele>329.390000</ele>
        <time>2009-04-13T10:37:25Z</time>
      </trkpt>
      <trkpt lat="50.683171" lon="6.400944">
        <ele>329.870000</ele>
        <time>2009-04-13T10:37:30Z</time>
      </trkpt>
      <trkpt lat="50.683074" lon="6.400791">
        <ele>332.750000</ele>
        <time>2009-04-13T10:37:46Z</time>
      </trkpt>
      <trkpt lat="50.683006" lon="6.400611">
        <ele>335.640000</ele>
        <time>2009-04-13T10:38:03Z</time>
      </trkpt>
      <trkpt lat="50.682883" lon="6.400424">
        <ele>338.520000</ele>
        <time>2009-04-13T10:38:21Z</time>
      </trkpt>
      <trkpt lat="50.682750" lon="6.400343">
        <ele>340.920000</ele>
        <time>2009-04-13T10:38:36Z</time>
      </trkpt>
      <trkpt lat="50.682732" lon="6.400276">
        <ele>341.890000</ele>
        <time>2009-04-13T10:38:41Z</time>
      </trkpt>
      <trkpt lat="50.682617" lon="6.400081">
        <ele>342.850000</ele>
        <time>2009-04-13T10:38:57Z</time>
      </trkpt>
      <trkpt lat="50.682562" lon="6.399972">
        <ele>343.330000</ele>
        <time>2009-04-13T10:39:03Z</time>
      </trkpt>
      <trkpt lat="50.682441" lon="6.399859">
        <ele>344.290000</ele>
        <time>2009-04-13T10:39:15Z</time>
      </trkpt>
      <trkpt lat="50.682422" lon="6.399765">
        <ele>344.770000</ele>
        <time>2009-04-13T10:39:20Z</time>
      </trkpt>
      <trkpt lat="50.682331" lon="6.399675">
        <ele>346.210000</ele>
        <time>2009-04-13T10:39:29Z</time>
      </trkpt>
      <trkpt lat="50.682177" lon="6.399504">
        <ele>348.620000</ele>
        <time>2009-04-13T10:39:44Z</time>
      </trkpt>
      <trkpt lat="50.682173" lon="6.399491">
        <ele>348.620000</ele>
        <time>2009-04-13T10:39:45Z</time>
      </trkpt>
      <trkpt lat="50.682144" lon="6.399476">
        <ele>349.100000</ele>
        <time>2009-04-13T10:39:47Z</time>
      </trkpt>
      <trkpt lat="50.681984" lon="6.399356">
        <ele>350.540000</ele>
        <time>2009-04-13T10:40:02Z</time>
      </trkpt>
      <trkpt lat="50.681893" lon="6.399312">
        <ele>351.020000</ele>
        <time>2009-04-13T10:40:10Z</time>
      </trkpt>
      <trkpt lat="50.681837" lon="6.399280">
        <ele>351.020000</ele>
        <time>2009-04-13T10:40:14Z</time>
      </trkpt>
      <trkpt lat="50.681764" lon="6.399234">
        <ele>351.500000</ele>
        <time>2009-04-13T10:40:20Z</time>
      </trkpt>
      <trkpt lat="50.681724" lon="6.399187">
        <ele>351.980000</ele>
        <time>2009-04-13T10:40:24Z</time>
      </trkpt>
      <trkpt lat="50.681603" lon="6.399038">
        <ele>351.980000</ele>
        <time>2009-04-13T10:40:39Z</time>
      </trkpt>
      <trkpt lat="50.681542" lon="6.399038">
        <ele>353.420000</ele>
        <time>2009-04-13T10:40:58Z</time>
      </trkpt>
      <trkpt lat="50.681541" lon="6.399060">
        <ele>353.420000</ele>
        <time>2009-04-13T10:41:07Z</time>
      </trkpt>
      <trkpt lat="50.681607" lon="6.399283">
        <ele>356.310000</ele>
        <time>2009-04-13T10:41:22Z</time>
      </trkpt>
      <trkpt lat="50.681676" lon="6.399468">
        <ele>359.190000</ele>
        <time>2009-04-13T10:41:36Z</time>
      </trkpt>
      <trkpt lat="50.681749" lon="6.399568">
        <ele>360.150000</ele>
        <time>2009-04-13T10:41:50Z</time>
      </trkpt>
      <trkpt lat="50.681788" lon="6.399850">
        <ele>362.070000</ele>
        <time>2009-04-13T10:42:05Z</time>
      </trkpt>
      <trkpt lat="50.681875" lon="6.400143">
        <ele>363.520000</ele>
        <time>2009-04-13T10:42:21Z</time>
      </trkpt>
      <trkpt lat="50.681895" lon="6.400250">
        <ele>364.000000</ele>
        <time>2009-04-13T10:42:27Z</time>
      </trkpt>
      <trkpt lat="50.681973" lon="6.400475">
        <ele>365.920000</ele>
        <time>2009-04-13T10:42:42Z</time>
      </trkpt>
      <trkpt lat="50.682004" lon="6.400555">
        <ele>366.880000</ele>
        <time>2009-04-13T10:42:47Z</time>
      </trkpt>
      <trkpt lat="50.681996" lon="6.400715">
        <ele>367.360000</ele>
        <time>2009-04-13T10:42:54Z</time>
      </trkpt>
      <trkpt lat="50.681997" lon="6.400783">
        <ele>367.840000</ele>
        <time>2009-04-13T10:42:58Z</time>
      </trkpt>
      <trkpt lat="50.681943" lon="6.401047">
        <ele>370.240000</ele>
        <time>2009-04-13T10:43:13Z</time>
      </trkpt>
      <trkpt lat="50.681879" lon="6.401331">
        <ele>372.650000</ele>
        <time>2009-04-13T10:43:30Z</time>
      </trkpt>
      <trkpt lat="50.681784" lon="6.401526">
        <ele>373.610000</ele>
        <time>2009-04-13T10:43:41Z</time>
      </trkpt>
      <trkpt lat="50.681765" lon="6.401655">
        <ele>373.130000</ele>
        <time>2009-04-13T10:43:47Z</time>
      </trkpt>
      <trkpt lat="50.681731" lon="6.401800">
        <ele>372.650000</ele>
        <time>2009-04-13T10:43:56Z</time>
      </trkpt>
      <trkpt lat="50.681596" lon="6.401956">
        <ele>372.170000</ele>
        <time>2009-04-13T10:44:05Z</time>
      </trkpt>
      <trkpt lat="50.681506" lon="6.402175">
        <ele>372.170000</ele>
        <time>2009-04-13T10:44:18Z</time>
      </trkpt>
      <trkpt lat="50.681434" lon="6.402390">
        <ele>370.730000</ele>
        <time>2009-04-13T10:44:32Z</time>
      </trkpt>
      <trkpt lat="50.681298" lon="6.402654">
        <ele>369.760000</ele>
        <time>2009-04-13T10:44:44Z</time>
      </trkpt>
      <trkpt lat="50.681164" lon="6.402873">
        <ele>368.320000</ele>
        <time>2009-04-13T10:44:58Z</time>
      </trkpt>
      <trkpt lat="50.681129" lon="6.403032">
        <ele>367.840000</ele>
        <time>2009-04-13T10:45:06Z</time>
      </trkpt>
      <trkpt lat="50.681068" lon="6.403177">
        <ele>367.360000</ele>
        <time>2009-04-13T10:45:14Z</time>
      </trkpt>
      <trkpt lat="50.681040" lon="6.403241">
        <ele>367.360000</ele>
        <time>2009-04-13T10:45:18Z</time>
      </trkpt>
      <trkpt lat="50.680924" lon="6.403490">
        <ele>367.360000</ele>
        <time>2009-04-13T10:45:32Z</time>
      </trkpt>
      <trkpt lat="50.680857" lon="6.403729">
        <ele>367.360000</ele>
        <time>2009-04-13T10:45:44Z</time>
      </trkpt>
      <trkpt lat="50.680846" lon="6.403985">
        <ele>366.880000</ele>
        <time>2009-04-13T10:45:57Z</time>
      </trkpt>
      <trkpt lat="50.680830" lon="6.404119">
        <ele>366.880000</ele>
        <time>2009-04-13T10:46:04Z</time>
      </trkpt>
      <trkpt lat="50.680802" lon="6.404384">
        <ele>366.880000</ele>
        <time>2009-04-13T10:46:17Z</time>
      </trkpt>
      <trkpt lat="50.680787" lon="6.404419">
        <ele>366.400000</ele>
        <time>2009-04-13T10:46:20Z</time>
      </trkpt>
      <trkpt lat="50.680669" lon="6.404682">
        <ele>365.920000</ele>
        <time>2009-04-13T10:46:34Z</time>
      </trkpt>
      <trkpt lat="50.680567" lon="6.404872">
        <ele>366.400000</ele>
        <time>2009-04-13T10:46:46Z</time>
      </trkpt>
      <trkpt lat="50.680508" lon="6.404921">
        <ele>366.880000</ele>
        <time>2009-04-13T10:46:51Z</time>
      </trkpt>
      <trkpt lat="50.680448" lon="6.404979">
        <ele>366.880000</ele>
        <time>2009-04-13T10:47:02Z</time>
      </trkpt>
      <trkpt lat="50.680459" lon="6.405017">
        <ele>366.880000</ele>
        <time>2009-04-13T10:48:08Z</time>
      </trkpt>
      <trkpt lat="50.680414" lon="6.405097">
        <ele>367.360000</ele>
        <time>2009-04-13T10:48:13Z</time>
      </trkpt>
      <trkpt lat="50.680373" lon="6.405169">
        <ele>366.880000</ele>
        <time>2009-04-13T10:48:17Z</time>
      </trkpt>
      <trkpt lat="50.680192" lon="6.405408">
        <ele>366.880000</ele>
        <time>2009-04-13T10:48:31Z</time>
      </trkpt>
      <trkpt lat="50.680079" lon="6.405468">
        <ele>366.400000</ele>
        <time>2009-04-13T10:48:41Z</time>
      </trkpt>
      <trkpt lat="50.679911" lon="6.405759">
        <ele>365.920000</ele>
        <time>2009-04-13T10:48:56Z</time>
      </trkpt>
      <trkpt lat="50.679783" lon="6.405987">
        <ele>365.920000</ele>
        <time>2009-04-13T10:49:10Z</time>
      </trkpt>
      <trkpt lat="50.679673" lon="6.406176">
        <ele>366.400000</ele>
        <time>2009-04-13T10:49:23Z</time>
      </trkpt>
      <trkpt lat="50.679579" lon="6.406283">
        <ele>366.880000</ele>
        <time>2009-04-13T10:49:32Z</time>
      </trkpt>
      <trkpt lat="50.679457" lon="6.406550">
        <ele>366.880000</ele>
        <time>2009-04-13T10:49:47Z</time>
      </trkpt>
      <trkpt lat="50.679417" lon="6.406601">
        <ele>366.400000</ele>
        <time>2009-04-13T10:49:51Z</time>
      </trkpt>
      <trkpt lat="50.679267" lon="6.406835">
        <ele>366.880000</ele>
        <time>2009-04-13T10:50:07Z</time>
      </trkpt>
      <trkpt lat="50.679142" lon="6.407029">
        <ele>367.360000</ele>
        <time>2009-04-13T10:50:21Z</time>
      </trkpt>
      <trkpt lat="50.679023" lon="6.407062">
        <ele>368.320000</ele>
        <time>2009-04-13T10:50:31Z</time>
      </trkpt>
      <trkpt lat="50.678886" lon="6.406845">
        <ele>370.730000</ele>
        <time>2009-04-13T10:50:47Z</time>
      </trkpt>
      <trkpt lat="50.678729" lon="6.406640">
        <ele>372.650000</ele>
        <time>2009-04-13T10:51:03Z</time>
      </trkpt>
      <trkpt lat="50.678697" lon="6.406584">
        <ele>373.610000</ele>
        <time>2009-04-13T10:51:08Z</time>
      </trkpt>
      <trkpt lat="50.678685" lon="6.406553">
        <ele>374.090000</ele>
        <time>2009-04-13T10:51:10Z</time>
      </trkpt>
      <trkpt lat="50.678496" lon="6.406367">
        <ele>375.530000</ele>
        <time>2009-04-13T10:51:27Z</time>
      </trkpt>
      <trkpt lat="50.678327" lon="6.406317">
        <ele>375.530000</ele>
        <time>2009-04-13T10:51:41Z</time>
      </trkpt>
      <trkpt lat="50.678313" lon="6.406316">
        <ele>375.050000</ele>
        <time>2009-04-13T10:51:42Z</time>
      </trkpt>
      <trkpt lat="50.678104" lon="6.406333">
        <ele>374.570000</ele>
        <time>2009-04-13T10:51:56Z</time>
      </trkpt>
      <trkpt lat="50.678039" lon="6.406307">
        <ele>374.570000</ele>
        <time>2009-04-13T10:52:01Z</time>
      </trkpt>
      <trkpt lat="50.677815" lon="6.406356">
        <ele>374.570000</ele>
        <time>2009-04-13T10:52:18Z</time>
      </trkpt>
      <trkpt lat="50.677773" lon="6.406320">
        <ele>374.090000</ele>
        <time>2009-04-13T10:52:22Z</time>
      </trkpt>
      <trkpt lat="50.677720" lon="6.406370">
        <ele>374.570000</ele>
        <time>2009-04-13T10:52:26Z</time>
      </trkpt>
      <trkpt lat="50.677513" lon="6.406335">
        <ele>374.570000</ele>
        <time>2009-04-13T10:52:41Z</time>
      </trkpt>
      <trkpt lat="50.677303" lon="6.406351">
        <ele>374.570000</ele>
        <time>2009-04-13T10:52:54Z</time>
      </trkpt>
      <trkpt lat="50.677158" lon="6.406331">
        <ele>375.530000</ele>
        <time>2009-04-13T10:53:06Z</time>
      </trkpt>
      <trkpt lat="50.677072" lon="6.406304">
        <ele>375.530000</ele>
        <time>2009-04-13T10:53:12Z</time>
      </trkpt>
      <trkpt lat="50.676866" lon="6.406573">
        <ele>375.530000</ele>
        <time>2009-04-13T10:53:29Z</time>
      </trkpt>
      <trkpt lat="50.676706" lon="6.406733">
        <ele>375.530000</ele>
        <time>2009-04-13T10:53:44Z</time>
      </trkpt>
      <trkpt lat="50.676526" lon="6.406952">
        <ele>375.530000</ele>
        <time>2009-04-13T10:54:00Z</time>
      </trkpt>
      <trkpt lat="50.676407" lon="6.407111">
        <ele>375.530000</ele>
        <time>2009-04-13T10:54:14Z</time>
      </trkpt>
      <trkpt lat="50.676300" lon="6.407253">
        <ele>375.530000</ele>
        <time>2009-04-13T10:54:25Z</time>
      </trkpt>
      <trkpt lat="50.676123" lon="6.407497">
        <ele>376.010000</ele>
        <time>2009-04-13T10:54:40Z</time>
      </trkpt>
      <trkpt lat="50.676021" lon="6.407633">
        <ele>376.490000</ele>
        <time>2009-04-13T10:54:49Z</time>
      </trkpt>
      <trkpt lat="50.675964" lon="6.407635">
        <ele>376.970000</ele>
        <time>2009-04-13T10:54:53Z</time>
      </trkpt>
      <trkpt lat="50.675862" lon="6.407617">
        <ele>377.940000</ele>
        <time>2009-04-13T10:55:01Z</time>
      </trkpt>
      <trkpt lat="50.675719" lon="6.407637">
        <ele>378.900000</ele>
        <time>2009-04-13T10:55:12Z</time>
      </trkpt>
      <trkpt lat="50.675566" lon="6.407639">
        <ele>379.380000</ele>
        <time>2009-04-13T10:55:24Z</time>
      </trkpt>
      <trkpt lat="50.675405" lon="6.407713">
        <ele>379.860000</ele>
        <time>2009-04-13T10:55:35Z</time>
      </trkpt>
      <trkpt lat="50.675238" lon="6.407797">
        <ele>379.860000</ele>
        <time>2009-04-13T10:55:49Z</time>
      </trkpt>
      <trkpt lat="50.675040" lon="6.407965">
        <ele>380.340000</ele>
        <time>2009-04-13T10:56:01Z</time>
      </trkpt>
      <trkpt lat="50.675021" lon="6.407983">
        <ele>380.340000</ele>
        <time>2009-04-13T10:56:03Z</time>
      </trkpt>
      <trkpt lat="50.674950" lon="6.407910">
        <ele>380.820000</ele>
        <time>2009-04-13T10:56:10Z</time>
      </trkpt>
      <trkpt lat="50.674902" lon="6.407861">
        <ele>381.300000</ele>
        <time>2009-04-13T10:56:14Z</time>
      </trkpt>
      <trkpt lat="50.674829" lon="6.407893">
        <ele>381.780000</ele>
        <time>2009-04-13T10:56:27Z</time>
      </trkpt>
      <trkpt lat="50.674842" lon="6.407841">
        <ele>381.780000</ele>
        <time>2009-04-13T10:59:09Z</time>
      </trkpt>
      <trkpt lat="50.674827" lon="6.407784">
        <ele>381.780000</ele>
        <time>2009-04-13T10:59:12Z</time>
      </trkpt>
      <trkpt lat="50.674709" lon="6.407718">
        <ele>380.820000</ele>
        <time>2009-04-13T10:59:22Z</time>
      </trkpt>
      <trkpt lat="50.674656" lon="6.407657">
        <ele>380.340000</ele>
        <time>2009-04-13T10:59:27Z</time>
      </trkpt>
      <trkpt lat="50.674575" lon="6.407570">
        <ele>379.860000</ele>
        <time>2009-04-13T10:59:34Z</time>
      </trkpt>
      <trkpt lat="50.674410" lon="6.407506">
        <ele>379.380000</ele>
        <time>2009-04-13T10:59:48Z</time>
      </trkpt>
      <trkpt lat="50.674287" lon="6.407576">
        <ele>379.380000</ele>
        <time>2009-04-13T10:59:59Z</time>
      </trkpt>
      <trkpt lat="50.673942" lon="6.407660">
        <ele>380.340000</ele>
        <time>2009-04-13T11:00:25Z</time>
      </trkpt>
      <trkpt lat="50.673819" lon="6.407637">
        <ele>380.340000</ele>
        <time>2009-04-13T11:00:35Z</time>
      </trkpt>
      <trkpt lat="50.673497" lon="6.407757">
        <ele>377.940000</ele>
        <time>2009-04-13T11:00:56Z</time>
      </trkpt>
      <trkpt lat="50.673344" lon="6.407798">
        <ele>376.970000</ele>
        <time>2009-04-13T11:01:07Z</time>
      </trkpt>
      <trkpt lat="50.673203" lon="6.407756">
        <ele>376.490000</ele>
        <time>2009-04-13T11:01:20Z</time>
      </trkpt>
      <trkpt lat="50.673147" lon="6.407750">
        <ele>377.450000</ele>
        <time>2009-04-13T11:01:26Z</time>
      </trkpt>
      <trkpt lat="50.673062" lon="6.407654">
        <ele>377.940000</ele>
        <time>2009-04-13T11:01:35Z</time>
      </trkpt>
      <trkpt lat="50.672890" lon="6.407668">
        <ele>377.940000</ele>
        <time>2009-04-13T11:01:48Z</time>
      </trkpt>
      <trkpt lat="50.672634" lon="6.407667">
        <ele>379.380000</ele>
        <time>2009-04-13T11:02:07Z</time>
      </trkpt>
      <trkpt lat="50.672472" lon="6.407614">
        <ele>381.780000</ele>
        <time>2009-04-13T11:02:21Z</time>
      </trkpt>
      <trkpt lat="50.672439" lon="6.407603">
        <ele>381.780000</ele>
        <time>2009-04-13T11:02:23Z</time>
      </trkpt>
      <trkpt lat="50.672225" lon="6.407603">
        <ele>382.740000</ele>
        <time>2009-04-13T11:02:40Z</time>
      </trkpt>
      <trkpt lat="50.672161" lon="6.407559">
        <ele>383.220000</ele>
        <time>2009-04-13T11:02:47Z</time>
      </trkpt>
      <trkpt lat="50.672038" lon="6.407613">
        <ele>384.660000</ele>
        <time>2009-04-13T11:02:57Z</time>
      </trkpt>
      <trkpt lat="50.671940" lon="6.407594">
        <ele>385.150000</ele>
        <time>2009-04-13T11:03:05Z</time>
      </trkpt>
      <trkpt lat="50.671774" lon="6.407625">
        <ele>385.630000</ele>
        <time>2009-04-13T11:03:18Z</time>
      </trkpt>
      <trkpt lat="50.671752" lon="6.407645">
        <ele>385.630000</ele>
        <time>2009-04-13T11:03:19Z</time>
      </trkpt>
      <trkpt lat="50.671584" lon="6.407684">
        <ele>386.590000</ele>
        <time>2009-04-13T11:03:34Z</time>
      </trkpt>
      <trkpt lat="50.671495" lon="6.407714">
        <ele>388.030000</ele>
        <time>2009-04-13T11:03:42Z</time>
      </trkpt>
      <trkpt lat="50.671324" lon="6.407805">
        <ele>389.950000</ele>
        <time>2009-04-13T11:03:57Z</time>
      </trkpt>
      <trkpt lat="50.671214" lon="6.407859">
        <ele>390.430000</ele>
        <time>2009-04-13T11:04:09Z</time>
      </trkpt>
      <trkpt lat="50.670975" lon="6.408060">
        <ele>391.870000</ele>
        <time>2009-04-13T11:04:28Z</time>
      </trkpt>
      <trkpt lat="50.670763" lon="6.408276">
        <ele>392.840000</ele>
        <time>2009-04-13T11:04:47Z</time>
      </trkpt>
      <trkpt lat="50.670578" lon="6.408493">
        <ele>395.720000</ele>
        <time>2009-04-13T11:05:08Z</time>
      </trkpt>
      <trkpt lat="50.670413" lon="6.408681">
        <ele>397.160000</ele>
        <time>2009-04-13T11:05:21Z</time>
      </trkpt>
      <trkpt lat="50.670248" lon="6.408841">
        <ele>397.640000</ele>
        <time>2009-04-13T11:05:39Z</time>
      </trkpt>
      <trkpt lat="50.670073" lon="6.408771">
        <ele>399.570000</ele>
        <time>2009-04-13T11:05:57Z</time>
      </trkpt>
      <trkpt lat="50.669867" lon="6.408784">
        <ele>401.010000</ele>
        <time>2009-04-13T11:06:24Z</time>
      </trkpt>
      <trkpt lat="50.669516" lon="6.408694">
        <ele>403.890000</ele>
        <time>2009-04-13T11:06:47Z</time>
      </trkpt>
      <trkpt lat="50.669238" lon="6.408727">
        <ele>404.850000</ele>
        <time>2009-04-13T11:07:08Z</time>
      </trkpt>
      <trkpt lat="50.668975" lon="6.408816">
        <ele>405.330000</ele>
        <time>2009-04-13T11:07:25Z</time>
      </trkpt>
      <trkpt lat="50.668842" lon="6.408817">
        <ele>405.330000</ele>
        <time>2009-04-13T11:07:35Z</time>
      </trkpt>
      <trkpt lat="50.668663" lon="6.408690">
        <ele>402.450000</ele>
        <time>2009-04-13T11:07:50Z</time>
      </trkpt>
      <trkpt lat="50.668623" lon="6.408783">
        <ele>401.970000</ele>
        <time>2009-04-13T11:07:55Z</time>
      </trkpt>
      <trkpt lat="50.668616" lon="6.408961">
        <ele>402.450000</ele>
        <time>2009-04-13T11:08:01Z</time>
      </trkpt>
      <trkpt lat="50.668590" lon="6.409030">
        <ele>402.930000</ele>
        <time>2009-04-13T11:08:05Z</time>
      </trkpt>
      <trkpt lat="50.668556" lon="6.409093">
        <ele>403.410000</ele>
        <time>2009-04-13T11:08:10Z</time>
      </trkpt>
      <trkpt lat="50.668534" lon="6.409161">
        <ele>403.890000</ele>
        <time>2009-04-13T11:08:15Z</time>
      </trkpt>
      <trkpt lat="50.668463" lon="6.409205">
        <ele>403.890000</ele>
        <time>2009-04-13T11:08:21Z</time>
      </trkpt>
      <trkpt lat="50.668410" lon="6.409239">
        <ele>403.890000</ele>
        <time>2009-04-13T11:08:25Z</time>
      </trkpt>
      <trkpt lat="50.668314" lon="6.409266">
        <ele>403.890000</ele>
        <time>2009-04-13T11:08:32Z</time>
      </trkpt>
      <trkpt lat="50.668221" lon="6.409280">
        <ele>404.370000</ele>
        <time>2009-04-13T11:08:38Z</time>
      </trkpt>
      <trkpt lat="50.667976" lon="6.409287">
        <ele>405.330000</ele>
        <time>2009-04-13T11:08:56Z</time>
      </trkpt>
      <trkpt lat="50.667788" lon="6.409293">
        <ele>407.260000</ele>
        <time>2009-04-13T11:09:12Z</time>
      </trkpt>
      <trkpt lat="50.667737" lon="6.409313">
        <ele>407.260000</ele>
        <time>2009-04-13T11:09:16Z</time>
      </trkpt>
      <trkpt lat="50.667672" lon="6.409322">
        <ele>408.220000</ele>
        <time>2009-04-13T11:09:21Z</time>
      </trkpt>
      <trkpt lat="50.667477" lon="6.409353">
        <ele>409.180000</ele>
        <time>2009-04-13T11:09:35Z</time>
      </trkpt>
      <trkpt lat="50.667304" lon="6.409378">
        <ele>410.140000</ele>
        <time>2009-04-13T11:09:48Z</time>
      </trkpt>
      <trkpt lat="50.667074" lon="6.409434">
        <ele>411.100000</ele>
        <time>2009-04-13T11:10:06Z</time>
      </trkpt>
      <trkpt lat="50.666971" lon="6.409426">
        <ele>411.580000</ele>
        <time>2009-04-13T11:10:15Z</time>
      </trkpt>
      <trkpt lat="50.666930" lon="6.409425">
        <ele>411.580000</ele>
        <time>2009-04-13T11:10:18Z</time>
      </trkpt>
      <trkpt lat="50.666793" lon="6.409405">
        <ele>412.540000</ele>
        <time>2009-04-13T11:10:28Z</time>
      </trkpt>
      <trkpt lat="50.666669" lon="6.409362">
        <ele>413.020000</ele>
        <time>2009-04-13T11:10:37Z</time>
      </trkpt>
      <trkpt lat="50.666485" lon="6.409335">
        <ele>414.470000</ele>
        <time>2009-04-13T11:10:52Z</time>
      </trkpt>
      <trkpt lat="50.666449" lon="6.409341">
        <ele>414.470000</ele>
        <time>2009-04-13T11:10:55Z</time>
      </trkpt>
      <trkpt lat="50.666400" lon="6.409345">
        <ele>414.950000</ele>
        <time>2009-04-13T11:10:59Z</time>
      </trkpt>
      <trkpt lat="50.666348" lon="6.409363">
        <ele>415.430000</ele>
        <time>2009-04-13T11:11:04Z</time>
      </trkpt>
      <trkpt lat="50.666165" lon="6.409346">
        <ele>415.910000</ele>
        <time>2009-04-13T11:11:17Z</time>
      </trkpt>
      <trkpt lat="50.666082" lon="6.409307">
        <ele>416.870000</ele>
        <time>2009-04-13T11:11:26Z</time>
      </trkpt>
      <trkpt lat="50.665855" lon="6.409192">
        <ele>418.790000</ele>
        <time>2009-04-13T11:11:44Z</time>
      </trkpt>
      <trkpt lat="50.665704" lon="6.409191">
        <ele>420.230000</ele>
        <time>2009-04-13T11:11:56Z</time>
      </trkpt>
      <trkpt lat="50.665565" lon="6.409211">
        <ele>421.190000</ele>
        <time>2009-04-13T11:12:09Z</time>
      </trkpt>
      <trkpt lat="50.665499" lon="6.409176">
        <ele>421.680000</ele>
        <time>2009-04-13T11:12:15Z</time>
      </trkpt>
      <trkpt lat="50.665320" lon="6.409088">
        <ele>423.600000</ele>
        <time>2009-04-13T11:12:32Z</time>
      </trkpt>
      <trkpt lat="50.665188" lon="6.409013">
        <ele>425.040000</ele>
        <time>2009-04-13T11:12:45Z</time>
      </trkpt>
      <trkpt lat="50.665160" lon="6.409012">
        <ele>425.040000</ele>
        <time>2009-04-13T11:12:47Z</time>
      </trkpt>
      <trkpt lat="50.664956" lon="6.408949">
        <ele>426.960000</ele>
        <time>2009-04-13T11:13:02Z</time>
      </trkpt>
      <trkpt lat="50.664832" lon="6.408881">
        <ele>427.920000</ele>
        <time>2009-04-13T11:13:13Z</time>
      </trkpt>
      <trkpt lat="50.664645" lon="6.408918">
        <ele>429.850000</ele>
        <time>2009-04-13T11:13:28Z</time>
      </trkpt>
      <trkpt lat="50.664433" lon="6.408951">
        <ele>431.770000</ele>
        <time>2009-04-13T11:13:45Z</time>
      </trkpt>
      <trkpt lat="50.664241" lon="6.408944">
        <ele>434.170000</ele>
        <time>2009-04-13T11:14:01Z</time>
      </trkpt>
      <trkpt lat="50.664196" lon="6.408919">
        <ele>434.650000</ele>
        <time>2009-04-13T11:14:13Z</time>
      </trkpt>
      <trkpt lat="50.664044" lon="6.408800"/>
      <trkpt lat="50.664044" lon="6.408772"/>
      <trkpt lat="50.663882" lon="6.408460"/>
      <trkpt lat="50.663793" lon="6.408092"/>
    </trkseg>
  </trk>

</gpx>
